Observation data for Smyer on 07/20/2019      Previous  Date  Next       Current Mesonet Observations  Soil Data  Daily Summary Page  Observations in Plain Language
KSM2 200500Z 17013KT 30/12 A2996 RMK A01 T02990123  RH  034%=      5-min Rain = 0
KSM2 200501Z 17012KT 30/12 A2996 RMK A01 T02980123  RH  034%=      5-min Rain = 0
KSM2 200502Z 18013KT 30/12 A2996 RMK A01 T02980123  RH  034%=      5-min Rain = 0
KSM2 200503Z 17012KT 30/12 A2996 RMK A01 T02970122  RH  034%=      5-min Rain = 0
KSM2 200504Z 18012KT 30/12 A2996 RMK A01 T02960122  RH  034%=      5-min Rain = 0
KSM2 200505Z 17012KT 30/12 A2996 RMK A01 T02960122  RH  034%=      5-min Rain = 0
KSM2 200506Z 17012G18KT 30/12 A2996 RMK A01 T02960122  RH  034%=      5-min Rain = 0
KSM2 200507Z 18015KT 30/12 A2996 RMK A01 T02960121  RH  034%=      5-min Rain = 0
KSM2 200508Z 17013G18KT 30/12 A2996 RMK A01 T02960121  RH  034%=      5-min Rain = 0
KSM2 200509Z 17011KT 30/12 A2996 RMK A01 T02960122  RH  034%=      5-min Rain = 0
KSM2 200510Z 18012G17KT 30/12 A2996 RMK A01 T02950122  RH  034%=      5-min Rain = 0
KSM2 200511Z 18013G19KT 29/12 A2996 RMK A01 T02940121  RH  034%=      5-min Rain = 0
KSM2 200512Z 18011KT 29/12 A2996 RMK A01 T02940122  RH  034%=      5-min Rain = 0
KSM2 200513Z 17014G20KT 29/12 A2996 RMK A01 T02940121  RH  034%=      5-min Rain = 0
KSM2 200514Z 18015KT 29/12 A2996 RMK A01 T02940121  RH  034%=      5-min Rain = 0
KSM2 200515Z 18015KT 29/12 A2996 RMK A01 T02940121  RH  034%=      5-min Rain = 0
KSM2 200516Z 18013KT 29/12 A2996 RMK A01 T02930121  RH  034%=      5-min Rain = 0
KSM2 200517Z 18016KT 29/12 A2996 RMK A01 T02930120  RH  034%=      5-min Rain = 0
KSM2 200518Z 18013G18KT 29/12 A2996 RMK A01 T02930120  RH  034%=      5-min Rain = 0
KSM2 200519Z 18015KT 29/12 A2996 RMK A01 T02940120  RH  034%=      5-min Rain = 0
KSM2 200520Z 18014KT 29/12 A2996 RMK A01 T02930119  RH  034%=      5-min Rain = 0
KSM2 200521Z 18015KT 29/12 A2996 RMK A01 T02930119  RH  034%=      5-min Rain = 0
KSM2 200522Z 18016KT 29/12 A2996 RMK A01 T02930119  RH  034%=      5-min Rain = 0
KSM2 200523Z 18012KT 29/12 A2996 RMK A01 T02930119  RH  034%=      5-min Rain = 0
KSM2 200524Z 18013KT 29/12 A2996 RMK A01 T02920119  RH  034%=      5-min Rain = 0
KSM2 200525Z 18013KT 29/12 A2996 RMK A01 T02910119  RH  035%=      5-min Rain = 0
KSM2 200526Z 18014KT 29/12 A2996 RMK A01 T02910118  RH  035%=      5-min Rain = 0
KSM2 200527Z 18015KT 29/12 A2997 RMK A01 T02910118  RH  034%=      5-min Rain = 0
KSM2 200528Z 18013KT 29/12 A2996 RMK A01 T02910118  RH  034%=      5-min Rain = 0
KSM2 200529Z 18015KT 29/12 A2996 RMK A01 T02910118  RH  034%=      5-min Rain = 0
KSM2 200530Z 18014G19KT 29/12 A2996 RMK A01 T02910118  RH  034%=      5-min Rain = 0
KSM2 200531Z 18015KT 29/12 A2996 RMK A01 T02900118  RH  034%=      5-min Rain = 0
KSM2 200532Z 18014KT 29/12 A2996 RMK A01 T02900118  RH  034%=      5-min Rain = 0
KSM2 200533Z 18014KT 29/12 A2996 RMK A01 T02900118  RH  034%=      5-min Rain = 0
KSM2 200534Z 18013G19KT 29/12 A2996 RMK A01 T02900118  RH  034%=      5-min Rain = 0
KSM2 200535Z 18014KT 29/12 A2996 RMK A01 T02900118  RH  035%=      5-min Rain = 0
KSM2 200536Z 18013G18KT 29/12 A2996 RMK A01 T02890118  RH  035%=      5-min Rain = 0
KSM2 200537Z 18011KT 29/12 A2996 RMK A01 T02890118  RH  035%=      5-min Rain = 0
KSM2 200538Z 18012KT 29/12 A2996 RMK A01 T02880118  RH  035%=      5-min Rain = 0
KSM2 200539Z 18014KT 29/12 A2996 RMK A01 T02880118  RH  035%=      5-min Rain = 0
KSM2 200540Z 17013KT 29/12 A2996 RMK A01 T02880117  RH  035%=      5-min Rain = 0
KSM2 200541Z 18013G18KT 29/12 A2996 RMK A01 T02880117  RH  035%=      5-min Rain = 0
KSM2 200542Z 18012G17KT 29/12 A2996 RMK A01 T02880117  RH  035%=      5-min Rain = 0
KSM2 200543Z 18013KT 29/12 A2996 RMK A01 T02880117  RH  035%=      5-min Rain = 0
KSM2 200544Z 18012KT 29/12 A2996 RMK A01 T02870117  RH  035%=      5-min Rain = 0
KSM2 200545Z 17013KT 29/12 A2996 RMK A01 T02870118  RH  035%=      5-min Rain = 0
KSM2 200546Z 18014KT 29/12 A2996 RMK A01 T02870117  RH  035%=      5-min Rain = 0
KSM2 200547Z 18014G19KT 29/12 A2996 RMK A01 T02870117  RH  035%=      5-min Rain = 0
KSM2 200548Z 18012KT 29/12 A2996 RMK A01 T02860117  RH  035%=      5-min Rain = 0
KSM2 200549Z 18014KT 29/12 A2996 RMK A01 T02870117  RH  035%=      5-min Rain = 0
KSM2 200550Z 18015G20KT 29/12 A2996 RMK A01 T02870117  RH  035%=      5-min Rain = 0
KSM2 200551Z 18014KT 29/12 A2996 RMK A01 T02870117  RH  035%=      5-min Rain = 0
KSM2 200552Z 18013KT 29/12 A2996 RMK A01 T02870118  RH  035%=      5-min Rain = 0
KSM2 200553Z 18015KT 29/12 A2996 RMK A01 T02860117  RH  035%=      5-min Rain = 0
KSM2 200554Z 18014KT 29/12 A2996 RMK A01 T02860117  RH  035%=      5-min Rain = 0
KSM2 200555Z 18016KT 29/12 A2997 RMK A01 T02860117  RH  035%=      5-min Rain = 0
KSM2 200556Z 18013KT 29/12 A2996 RMK A01 T02860117  RH  035%=      5-min Rain = 0
KSM2 200557Z 18013KT 29/12 A2996 RMK A01 T02850117  RH  035%=      5-min Rain = 0
KSM2 200558Z 18014G19KT 29/12 A2996 RMK A01 T02850117  RH  035%=      5-min Rain = 0
KSM2 200559Z 18012KT 28/12 A2996 RMK A01 T02840117  RH  036%=      5-min Rain = 0
KSM2 200600Z 18014G21KT 28/12 A2996 RMK A01 T02840117  RH  036%=      5-min Rain = 0
KSM2 200601Z 18013KT 28/12 A2996 RMK A01 T02840117  RH  036%=      5-min Rain = 0
KSM2 200602Z 18014KT 28/12 A2996 RMK A01 T02840117  RH  036%=      5-min Rain = 0
KSM2 200603Z 18013KT 28/12 A2996 RMK A01 T02830117  RH  036%=      5-min Rain = 0
KSM2 200604Z 18014G19KT 28/12 A2996 RMK A01 T02830117  RH  036%=      5-min Rain = 0
KSM2 200605Z 18011KT 28/12 A2996 RMK A01 T02830117  RH  036%=      5-min Rain = 0
KSM2 200606Z 18012KT 28/12 A2996 RMK A01 T02830117  RH  036%=      5-min Rain = 0
KSM2 200607Z 18012KT 28/12 A2996 RMK A01 T02820118  RH  036%=      5-min Rain = 0
KSM2 200608Z 18013KT 28/12 A2997 RMK A01 T02820118  RH  036%=      5-min Rain = 0
KSM2 200609Z 18011KT 28/12 A2997 RMK A01 T02810118  RH  036%=      5-min Rain = 0
KSM2 200610Z 18013KT 28/12 A2997 RMK A01 T02810118  RH  036%=      5-min Rain = 0
KSM2 200611Z 18013KT 28/12 A2997 RMK A01 T02810118  RH  036%=      5-min Rain = 0
KSM2 200612Z 18013KT 28/12 A2997 RMK A01 T02810118  RH  037%=      5-min Rain = 0
KSM2 200613Z 18011KT 28/12 A2997 RMK A01 T02810118  RH  037%=      5-min Rain = 0
KSM2 200614Z 18014KT 28/12 A2997 RMK A01 T02800118  RH  037%=      5-min Rain = 0
KSM2 200615Z 18013KT 28/12 A2997 RMK A01 T02800118  RH  037%=      5-min Rain = 0
KSM2 200616Z 18010KT 28/12 A2997 RMK A01 T02800118  RH  037%=      5-min Rain = 0
KSM2 200617Z 18012KT 28/12 A2997 RMK A01 T02790118  RH  037%=      5-min Rain = 0
KSM2 200618Z 18013KT 28/12 A2997 RMK A01 T02790118  RH  037%=      5-min Rain = 0
KSM2 200619Z 18011G16KT 28/12 A2997 RMK A01 T02790119  RH  037%=      5-min Rain = 0
KSM2 200620Z 18013KT 28/12 A2997 RMK A01 T02790119  RH  037%=      5-min Rain = 0
KSM2 200621Z 18011KT 28/12 A2997 RMK A01 T02790119  RH  037%=      5-min Rain = 0
KSM2 200622Z 18011G16KT 28/12 A2997 RMK A01 T02780119  RH  037%=      5-min Rain = 0
KSM2 200623Z 18014KT 28/12 A2997 RMK A01 T02780119  RH  037%=      5-min Rain = 0
KSM2 200624Z 18013KT 28/12 A2997 RMK A01 T02780119  RH  037%=      5-min Rain = 0
KSM2 200625Z 18012KT 28/12 A2997 RMK A01 T02790119  RH  037%=      5-min Rain = 0
KSM2 200626Z 18018KT 28/12 A2997 RMK A01 T02780119  RH  037%=      5-min Rain = 0
KSM2 200627Z 17012G17KT 28/12 A2997 RMK A01 T02790119  RH  037%=      5-min Rain = 0
KSM2 200628Z 18012G17KT 28/12 A2997 RMK A01 T02790120  RH  037%=      5-min Rain = 0
KSM2 200629Z 17014KT 28/12 A2997 RMK A01 T02780120  RH  037%=      5-min Rain = 0
KSM2 200630Z 18013KT 28/12 A2997 RMK A01 T02780120  RH  037%=      5-min Rain = 0
KSM2 200631Z 18016G22KT 28/12 A2997 RMK A01 T02780120  RH  038%=      5-min Rain = 0
KSM2 200632Z 18012KT 28/12 A2996 RMK A01 T02780120  RH  038%=      5-min Rain = 0
KSM2 200633Z 18012KT 28/12 A2996 RMK A01 T02780121  RH  038%=      5-min Rain = 0
KSM2 200634Z 18012KT 28/12 A2996 RMK A01 T02780121  RH  038%=      5-min Rain = 0
KSM2 200635Z 17012KT 28/12 A2996 RMK A01 T02770121  RH  038%=      5-min Rain = 0
KSM2 200636Z 18013KT 28/12 A2996 RMK A01 T02770121  RH  038%=      5-min Rain = 0
KSM2 200637Z 17011G16KT 28/12 A2996 RMK A01 T02770122  RH  038%=      5-min Rain = 0
KSM2 200638Z 18011KT 28/12 A2997 RMK A01 T02770122  RH  038%=      5-min Rain = 0
KSM2 200639Z 17012KT 28/12 A2997 RMK A01 T02760122  RH  038%=      5-min Rain = 0
KSM2 200640Z 18013KT 28/12 A2997 RMK A01 T02760123  RH  039%=      5-min Rain = 0
KSM2 200641Z 18012KT 28/12 A2997 RMK A01 T02760122  RH  039%=      5-min Rain = 0
KSM2 200642Z 17011KT 28/12 A2997 RMK A01 T02760122  RH  038%=      5-min Rain = 0
KSM2 200643Z 18010G16KT 28/12 A2997 RMK A01 T02760123  RH  039%=      5-min Rain = 0
KSM2 200644Z 18010KT 28/12 A2997 RMK A01 T02750123  RH  039%=      5-min Rain = 0
KSM2 200645Z 18011KT 28/12 A2997 RMK A01 T02750123  RH  039%=      5-min Rain = 0
KSM2 200646Z 18012KT 27/12 A2997 RMK A01 T02740123  RH  039%=      5-min Rain = 0
KSM2 200647Z 18013G19KT 27/12 A2997 RMK A01 T02740123  RH  039%=      5-min Rain = 0
KSM2 200648Z 18014KT 27/12 A2997 RMK A01 T02740123  RH  039%=      5-min Rain = 0
KSM2 200649Z 18012KT 28/12 A2997 RMK A01 T02750124  RH  039%=      5-min Rain = 0
KSM2 200650Z 18013G18KT 28/12 A2997 RMK A01 T02750124  RH  039%=      5-min Rain = 0
KSM2 200651Z 18011G17KT 28/12 A2997 RMK A01 T02750124  RH  039%=      5-min Rain = 0
KSM2 200652Z 18013KT 28/12 A2997 RMK A01 T02750124  RH  039%=      5-min Rain = 0
KSM2 200653Z 18013G18KT 28/12 A2997 RMK A01 T02750124  RH  039%=      5-min Rain = 0
KSM2 200654Z 18013KT 28/12 A2997 RMK A01 T02750124  RH  039%=      5-min Rain = 0
KSM2 200655Z 18012KT 27/12 A2997 RMK A01 T02740124  RH  039%=      5-min Rain = 0
KSM2 200656Z 18014KT 27/13 A2997 RMK A01 T02740125  RH  040%=      5-min Rain = 0
KSM2 200657Z 18014KT 27/13 A2997 RMK A01 T02740125  RH  040%=      5-min Rain = 0
KSM2 200658Z 18013KT 27/13 A2997 RMK A01 T02730125  RH  040%=      5-min Rain = 0
KSM2 200659Z 18012KT 27/13 A2997 RMK A01 T02730125  RH  040%=      5-min Rain = 0
KSM2 200700Z 18013KT 27/13 A2997 RMK A01 T02730125  RH  040%=      5-min Rain = 0
KSM2 200701Z 18012KT 27/13 A2997 RMK A01 T02730125  RH  040%=      5-min Rain = 0
KSM2 200702Z 18013KT 27/13 A2997 RMK A01 T02720125  RH  040%=      5-min Rain = 0
KSM2 200703Z 18013KT 27/13 A2997 RMK A01 T02720125  RH  040%=      5-min Rain = 0
KSM2 200704Z 18012KT 27/13 A2997 RMK A01 T02720126  RH  040%=      5-min Rain = 0
KSM2 200705Z 18013KT 27/13 A2997 RMK A01 T02720126  RH  040%=      5-min Rain = 0
KSM2 200706Z 17013KT 27/13 A2997 RMK A01 T02720126  RH  040%=      5-min Rain = 0
KSM2 200707Z 18011KT 27/13 A2997 RMK A01 T02720126  RH  040%=      5-min Rain = 0
KSM2 200708Z 18011KT 27/13 A2997 RMK A01 T02710126  RH  041%=      5-min Rain = 0
KSM2 200709Z 18011KT 27/13 A2997 RMK A01 T02710126  RH  041%=      5-min Rain = 0
KSM2 200710Z 18015KT 27/13 A2997 RMK A01 T02710126  RH  041%=      5-min Rain = 0
KSM2 200711Z 18010KT 27/13 A2997 RMK A01 T02700126  RH  041%=      5-min Rain = 0
KSM2 200712Z 18012G17KT 27/13 A2997 RMK A01 T02700126  RH  041%=      5-min Rain = 0
KSM2 200713Z 18010KT 27/13 A2997 RMK A01 T02700126  RH  041%=      5-min Rain = 0
KSM2 200714Z 18011KT 27/13 A2997 RMK A01 T02700127  RH  041%=      5-min Rain = 0
KSM2 200715Z 18010KT 27/13 A2997 RMK A01 T02700127  RH  041%=      5-min Rain = 0
KSM2 200716Z 18011KT 27/13 A2997 RMK A01 T02690128  RH  042%=      5-min Rain = 0
KSM2 200717Z 18013KT 27/13 A2997 RMK A01 T02680127  RH  042%=      5-min Rain = 0
KSM2 200718Z 18011KT 27/13 A2997 RMK A01 T02690127  RH  041%=      5-min Rain = 0
KSM2 200719Z 18013KT 27/13 A2997 RMK A01 T02690127  RH  041%=      5-min Rain = 0
KSM2 200720Z 18012KT 27/13 A2997 RMK A01 T02700127  RH  041%=      5-min Rain = 0
KSM2 200721Z 18011KT 27/13 A2997 RMK A01 T02700127  RH  041%=      5-min Rain = 0
KSM2 200722Z 18010KT 27/13 A2997 RMK A01 T02700128  RH  041%=      5-min Rain = 0
KSM2 200723Z 18011KT 27/13 A2997 RMK A01 T02700128  RH  041%=      5-min Rain = 0
KSM2 200724Z 18012KT 27/13 A2997 RMK A01 T02690128  RH  042%=      5-min Rain = 0
KSM2 200725Z 18011KT 27/13 A2997 RMK A01 T02690128  RH  042%=      5-min Rain = 0
KSM2 200726Z 18011KT 27/13 A2997 RMK A01 T02690128  RH  042%=      5-min Rain = 0
KSM2 200727Z 18010KT 27/13 A2997 RMK A01 T02680128  RH  042%=      5-min Rain = 0
KSM2 200728Z 18009G14KT 27/13 A2997 RMK A01 T02680128  RH  042%=      5-min Rain = 0
KSM2 200729Z 18008G13KT 27/13 A2997 RMK A01 T02670129  RH  043%=      5-min Rain = 0
KSM2 200730Z 19011KT 27/13 A2997 RMK A01 T02660129  RH  043%=      5-min Rain = 0
KSM2 200731Z 18010KT 27/13 A2997 RMK A01 T02660129  RH  043%=      5-min Rain = 0
KSM2 200732Z 18010KT 27/13 A2997 RMK A01 T02660129  RH  042%=      5-min Rain = 0
KSM2 200733Z 18011KT 27/13 A2997 RMK A01 T02660128  RH  043%=      5-min Rain = 0
KSM2 200734Z 18010KT 27/13 A2997 RMK A01 T02660129  RH  043%=      5-min Rain = 0
KSM2 200735Z 18010KT 27/13 A2997 RMK A01 T02660129  RH  043%=      5-min Rain = 0
KSM2 200736Z 18010KT 27/13 A2997 RMK A01 T02660129  RH  043%=      5-min Rain = 0
KSM2 200737Z 18010KT 27/13 A2997 RMK A01 T02660129  RH  043%=      5-min Rain = 0
KSM2 200738Z 18009KT 27/13 A2997 RMK A01 T02650129  RH  043%=      5-min Rain = 0
KSM2 200739Z 18009KT 26/13 A2997 RMK A01 T02640129  RH  043%=      5-min Rain = 0
KSM2 200740Z 18010KT 26/13 A2997 RMK A01 T02640129  RH  043%=      5-min Rain = 0
KSM2 200741Z 18010KT 26/13 A2997 RMK A01 T02640129  RH  043%=      5-min Rain = 0
KSM2 200742Z 18012KT 27/13 A2997 RMK A01 T02650129  RH  043%=      5-min Rain = 0
KSM2 200743Z 18011KT 27/13 A2997 RMK A01 T02650129  RH  043%=      5-min Rain = 0
KSM2 200744Z 18009KT 27/13 A2997 RMK A01 T02660129  RH  043%=      5-min Rain = 0
KSM2 200745Z 18010KT 27/13 A2997 RMK A01 T02660129  RH  043%=      5-min Rain = 0
KSM2 200746Z 18010KT 27/13 A2997 RMK A01 T02660130  RH  043%=      5-min Rain = 0
KSM2 200747Z 18011KT 27/13 A2996 RMK A01 T02650129  RH  043%=      5-min Rain = 0
KSM2 200748Z 18013KT 27/13 A2996 RMK A01 T02650129  RH  043%=      5-min Rain = 0
KSM2 200749Z 18011G16KT 27/13 A2996 RMK A01 T02660129  RH  043%=      5-min Rain = 0
KSM2 200750Z 18010G15KT 27/13 A2996 RMK A01 T02660130  RH  043%=      5-min Rain = 0
KSM2 200751Z 18011G16KT 27/13 A2996 RMK A01 T02660130  RH  043%=      5-min Rain = 0
KSM2 200752Z 18009KT 27/13 A2996 RMK A01 T02660130  RH  043%=      5-min Rain = 0
KSM2 200753Z 18010KT 27/13 A2996 RMK A01 T02650130  RH  043%=      5-min Rain = 0
KSM2 200754Z 18012G18KT 27/13 A2996 RMK A01 T02650130  RH  043%=      5-min Rain = 0
KSM2 200755Z 18012KT 27/13 A2996 RMK A01 T02650130  RH  043%=      5-min Rain = 0
KSM2 200756Z 18013KT 27/13 A2996 RMK A01 T02650130  RH  043%=      5-min Rain = 0
KSM2 200757Z 18011KT 27/13 A2996 RMK A01 T02660130  RH  043%=      5-min Rain = 0
KSM2 200758Z 18011KT 27/13 A2996 RMK A01 T02660130  RH  043%=      5-min Rain = 0
KSM2 200759Z 18012KT 27/13 A2996 RMK A01 T02650130  RH  043%=      5-min Rain = 0
KSM2 200800Z 19011KT 27/13 A2996 RMK A01 T02650130  RH  043%=      5-min Rain = 0
KSM2 200801Z 19011KT 27/13 A2996 RMK A01 T02650130  RH  043%=      5-min Rain = 0
KSM2 200802Z 18010KT 26/13 A2996 RMK A01 T02640130  RH  043%=      5-min Rain = 0
KSM2 200803Z 18012G17KT 26/13 A2996 RMK A01 T02630130  RH  044%=      5-min Rain = 0
KSM2 200804Z 18009G14KT 26/13 A2996 RMK A01 T02640130  RH  043%=      5-min Rain = 0
KSM2 200805Z 18010KT 26/13 A2996 RMK A01 T02640130  RH  044%=      5-min Rain = 0
KSM2 200806Z 18011KT 26/13 A2996 RMK A01 T02640130  RH  044%=      5-min Rain = 0
KSM2 200807Z 19011KT 26/13 A2996 RMK A01 T02630130  RH  044%=      5-min Rain = 0
KSM2 200808Z 18011KT 26/13 A2996 RMK A01 T02630130  RH  044%=      5-min Rain = 0
KSM2 200809Z 18010KT 26/13 A2996 RMK A01 T02630130  RH  044%=      5-min Rain = 0
KSM2 200810Z 18009KT 26/13 A2996 RMK A01 T02630131  RH  044%=      5-min Rain = 0
KSM2 200811Z 19009KT 26/13 A2996 RMK A01 T02620130  RH  044%=      5-min Rain = 0
KSM2 200812Z 19010KT 26/13 A2996 RMK A01 T02620130  RH  044%=      5-min Rain = 0
KSM2 200813Z 19010KT 26/13 A2996 RMK A01 T02620130  RH  044%=      5-min Rain = 0
KSM2 200814Z 19010KT 26/13 A2996 RMK A01 T02620130  RH  044%=      5-min Rain = 0
KSM2 200815Z 18009KT 26/13 A2996 RMK A01 T02620130  RH  044%=      5-min Rain = 0
KSM2 200816Z 18012KT 26/13 A2996 RMK A01 T02620131  RH  044%=      5-min Rain = 0
KSM2 200817Z 19010KT 26/13 A2996 RMK A01 T02620130  RH  044%=      5-min Rain = 0
KSM2 200818Z 19012KT 26/13 A2996 RMK A01 T02620130  RH  044%=      5-min Rain = 0
KSM2 200819Z 18010KT 26/13 A2996 RMK A01 T02620130  RH  044%=      5-min Rain = 0
KSM2 200820Z 18009KT 26/13 A2996 RMK A01 T02620130  RH  044%=      5-min Rain = 0
KSM2 200821Z 19011KT 26/13 A2996 RMK A01 T02620130  RH  044%=      5-min Rain = 0
KSM2 200822Z 18012KT 26/13 A2996 RMK A01 T02620130  RH  044%=      5-min Rain = 0
KSM2 200823Z 18010KT 26/13 A2996 RMK A01 T02620131  RH  044%=      5-min Rain = 0
KSM2 200824Z 18011KT 26/13 A2996 RMK A01 T02620130  RH  044%=      5-min Rain = 0
KSM2 200825Z 18009KT 26/13 A2996 RMK A01 T02620131  RH  044%=      5-min Rain = 0
KSM2 200826Z 19010KT 26/13 A2996 RMK A01 T02610131  RH  044%=      5-min Rain = 0
KSM2 200827Z 19010KT 26/13 A2996 RMK A01 T02610130  RH  044%=      5-min Rain = 0
KSM2 200828Z 19010KT 26/13 A2996 RMK A01 T02620131  RH  044%=      5-min Rain = 0
KSM2 200829Z 19010KT 26/13 A2996 RMK A01 T02610131  RH  044%=      5-min Rain = 0
KSM2 200830Z 19010KT 26/13 A2996 RMK A01 T02610131  RH  045%=      5-min Rain = 0
KSM2 200831Z 19009KT 26/13 A2996 RMK A01 T02600131  RH  045%=      5-min Rain = 0
KSM2 200832Z 19010KT 26/13 A2996 RMK A01 T02600130  RH  045%=      5-min Rain = 0
KSM2 200833Z 19010KT 26/13 A2996 RMK A01 T02600131  RH  045%=      5-min Rain = 0
KSM2 200834Z 19010KT 26/13 A2996 RMK A01 T02600131  RH  045%=      5-min Rain = 0
KSM2 200835Z 19011KT 26/13 A2996 RMK A01 T02600131  RH  045%=      5-min Rain = 0
KSM2 200836Z 19010KT 26/13 A2996 RMK A01 T02600131  RH  045%=      5-min Rain = 0
KSM2 200837Z 19010KT 26/13 A2996 RMK A01 T02600130  RH  045%=      5-min Rain = 0
KSM2 200838Z 18009KT 26/13 A2996 RMK A01 T02600131  RH  045%=      5-min Rain = 0
KSM2 200839Z 19010KT 26/13 A2996 RMK A01 T02600131  RH  045%=      5-min Rain = 0
KSM2 200840Z 18009KT 26/13 A2996 RMK A01 T02600131  RH  045%=      5-min Rain = 0
KSM2 200841Z 18009KT 26/13 A2996 RMK A01 T02600131  RH  045%=      5-min Rain = 0
KSM2 200842Z 18009KT 26/13 A2996 RMK A01 T02600131  RH  045%=      5-min Rain = 0
KSM2 200843Z 18009KT 26/13 A2996 RMK A01 T02590131  RH  045%=      5-min Rain = 0
KSM2 200844Z 18007KT 26/13 A2996 RMK A01 T02590131  RH  045%=      5-min Rain = 0
KSM2 200845Z 18008KT 26/13 A2996 RMK A01 T02590132  RH  045%=      5-min Rain = 0
KSM2 200846Z 18008KT 26/13 A2996 RMK A01 T02580131  RH  046%=      5-min Rain = 0
KSM2 200847Z 18009KT 26/13 A2996 RMK A01 T02570131  RH  046%=      5-min Rain = 0
KSM2 200848Z 18009KT 26/13 A2996 RMK A01 T02570132  RH  046%=      5-min Rain = 0
KSM2 200849Z 18007KT 26/13 A2996 RMK A01 T02560132  RH  046%=      5-min Rain = 0
KSM2 200850Z 18008KT 26/13 A2996 RMK A01 T02560132  RH  046%=      5-min Rain = 0
KSM2 200851Z 18009KT 26/13 A2996 RMK A01 T02570132  RH  046%=      5-min Rain = 0
KSM2 200852Z 18009KT 26/13 A2996 RMK A01 T02570132  RH  046%=      5-min Rain = 0
KSM2 200853Z 18008KT 26/13 A2996 RMK A01 T02570132  RH  046%=      5-min Rain = 0
KSM2 200854Z 18008KT 26/13 A2996 RMK A01 T02570132  RH  046%=      5-min Rain = 0
KSM2 200855Z 18009KT 26/13 A2996 RMK A01 T02570132  RH  046%=      5-min Rain = 0
KSM2 200856Z 17009KT 26/13 A2996 RMK A01 T02560132  RH  046%=      5-min Rain = 0
KSM2 200857Z 18008KT 26/13 A2996 RMK A01 T02570132  RH  046%=      5-min Rain = 0
KSM2 200858Z 18008KT 26/13 A2996 RMK A01 T02570132  RH  046%=      5-min Rain = 0
KSM2 200859Z 17009KT 26/13 A2996 RMK A01 T02560132  RH  046%=      5-min Rain = 0
KSM2 200900Z 17010KT 26/13 A2996 RMK A01 T02570132  RH  046%=      5-min Rain = 0
KSM2 200901Z 17009KT 26/13 A2996 RMK A01 T02570131  RH  046%=      5-min Rain = 0
KSM2 200902Z 18009KT 26/13 A2996 RMK A01 T02560131  RH  046%=      5-min Rain = 0
KSM2 200903Z 17009KT 26/13 A2996 RMK A01 T02560131  RH  046%=      5-min Rain = 0
KSM2 200904Z 18009KT 26/13 A2996 RMK A01 T02560132  RH  046%=      5-min Rain = 0
KSM2 200905Z 17007KT 26/13 A2996 RMK A01 T02560132  RH  046%=      5-min Rain = 0
KSM2 200906Z 18010KT 26/13 A2996 RMK A01 T02550132  RH  046%=      5-min Rain = 0
KSM2 200907Z 18008KT 26/13 A2996 RMK A01 T02550132  RH  046%=      5-min Rain = 0
KSM2 200908Z 18009KT 26/13 A2996 RMK A01 T02550132  RH  046%=      5-min Rain = 0
KSM2 200909Z 18010KT 26/13 A2996 RMK A01 T02550132  RH  047%=      5-min Rain = 0
KSM2 200910Z 18009KT 26/13 A2996 RMK A01 T02550132  RH  047%=      5-min Rain = 0
KSM2 200911Z 18008KT 26/13 A2996 RMK A01 T02550132  RH  047%=      5-min Rain = 0
KSM2 200912Z 18009KT 25/13 A2996 RMK A01 T02540132  RH  047%=      5-min Rain = 0
KSM2 200913Z 18010KT 25/13 A2996 RMK A01 T02540132  RH  047%=      5-min Rain = 0
KSM2 200914Z 18008KT 25/13 A2996 RMK A01 T02540132  RH  047%=      5-min Rain = 0
KSM2 200915Z 18009KT 25/13 A2996 RMK A01 T02540132  RH  047%=      5-min Rain = 0
KSM2 200916Z 17010KT 25/13 A2996 RMK A01 T02540133  RH  047%=      5-min Rain = 0
KSM2 200917Z 18010KT 25/13 A2996 RMK A01 T02540132  RH  047%=      5-min Rain = 0
KSM2 200918Z 17009KT 25/13 A2996 RMK A01 T02540133  RH  047%=      5-min Rain = 0
KSM2 200919Z 17008KT 25/13 A2996 RMK A01 T02540132  RH  047%=      5-min Rain = 0
KSM2 200920Z 18007KT 25/13 A2996 RMK A01 T02540133  RH  047%=      5-min Rain = 0
KSM2 200921Z 17009KT 25/13 A2996 RMK A01 T02540133  RH  047%=      5-min Rain = 0
KSM2 200922Z 17007KT 25/13 A2996 RMK A01 T02530133  RH  047%=      5-min Rain = 0
KSM2 200923Z 17009KT 25/13 A2996 RMK A01 T02530133  RH  047%=      5-min Rain = 0
KSM2 200924Z 17008KT 25/13 A2996 RMK A01 T02530133  RH  047%=      5-min Rain = 0
KSM2 200925Z 17008KT 25/13 A2996 RMK A01 T02520133  RH  047%=      5-min Rain = 0
KSM2 200926Z 17008KT 25/13 A2996 RMK A01 T02520133  RH  047%=      5-min Rain = 0
KSM2 200927Z 17009KT 25/13 A2996 RMK A01 T02520133  RH  048%=      5-min Rain = 0
KSM2 200928Z 17010KT 25/13 A2996 RMK A01 T02520133  RH  047%=      5-min Rain = 0
KSM2 200929Z 17009KT 25/13 A2996 RMK A01 T02530133  RH  047%=      5-min Rain = 0
KSM2 200930Z 17008KT 25/13 A2996 RMK A01 T02530133  RH  047%=      5-min Rain = 0
KSM2 200931Z 17010KT 25/13 A2996 RMK A01 T02530133  RH  047%=      5-min Rain = 0
KSM2 200932Z 17010KT 25/13 A2996 RMK A01 T02530133  RH  047%=      5-min Rain = 0
KSM2 200933Z 16011KT 25/13 A2996 RMK A01 T02530133  RH  047%=      5-min Rain = 0
KSM2 200934Z 17010KT 25/13 A2996 RMK A01 T02530133  RH  047%=      5-min Rain = 0
KSM2 200935Z 17009G14KT 25/13 A2996 RMK A01 T02530133  RH  048%=      5-min Rain = 0
KSM2 200936Z 17009KT 25/13 A2996 RMK A01 T02520134  RH  048%=      5-min Rain = 0
KSM2 200937Z 17010KT 25/13 A2996 RMK A01 T02520133  RH  048%=      5-min Rain = 0
KSM2 200938Z 17010KT 25/13 A2996 RMK A01 T02520133  RH  048%=      5-min Rain = 0
KSM2 200939Z 17009KT 25/13 A2996 RMK A01 T02520133  RH  048%=      5-min Rain = 0
KSM2 200940Z 17011KT 25/13 A2996 RMK A01 T02510133  RH  048%=      5-min Rain = 0
KSM2 200941Z 18008KT 25/13 A2996 RMK A01 T02510133  RH  048%=      5-min Rain = 0
KSM2 200942Z 18008KT 25/13 A2996 RMK A01 T02510133  RH  048%=      5-min Rain = 0
KSM2 200943Z 17009KT 25/13 A2996 RMK A01 T02500133  RH  048%=      5-min Rain = 0
KSM2 200944Z 17010KT 25/13 A2996 RMK A01 T02500133  RH  048%=      5-min Rain = 0
KSM2 200945Z 17010KT 25/13 A2996 RMK A01 T02500133  RH  048%=      5-min Rain = 0
KSM2 200946Z 18008KT 25/13 A2996 RMK A01 T02490134  RH  048%=      5-min Rain = 0
KSM2 200947Z 18009KT 25/13 A2996 RMK A01 T02490133  RH  049%=      5-min Rain = 0
KSM2 200948Z 17008KT 25/13 A2996 RMK A01 T02490134  RH  049%=      5-min Rain = 0
KSM2 200949Z 17011KT 25/13 A2996 RMK A01 T02490134  RH  049%=      5-min Rain = 0
KSM2 200950Z 18009KT 25/13 A2996 RMK A01 T02490134  RH  049%=      5-min Rain = 0
KSM2 200951Z 17011KT 25/13 A2996 RMK A01 T02480134  RH  049%=      5-min Rain = 0
KSM2 200952Z 17010KT 25/13 A2996 RMK A01 T02480134  RH  049%=      5-min Rain = 0
KSM2 200953Z 17009KT 25/13 A2996 RMK A01 T02480134  RH  049%=      5-min Rain = 0
KSM2 200954Z 18010KT 25/13 A2996 RMK A01 T02480134  RH  049%=      5-min Rain = 0
KSM2 200955Z 17009KT 25/14 A2996 RMK A01 T02480135  RH  049%=      5-min Rain = 0
KSM2 200956Z 18008KT 25/14 A2996 RMK A01 T02470135  RH  049%=      5-min Rain = 0
KSM2 200957Z 17007KT 25/14 A2996 RMK A01 T02470135  RH  050%=      5-min Rain = 0
KSM2 200958Z 18010KT 25/14 A2996 RMK A01 T02470135  RH  050%=      5-min Rain = 0
KSM2 200959Z 17010KT 25/14 A2996 RMK A01 T02460135  RH  050%=      5-min Rain = 0
KSM2 201000Z 18010KT 25/14 A2996 RMK A01 T02470135  RH  050%=      5-min Rain = 0
KSM2 201001Z 17008KT 25/14 A2996 RMK A01 T02470135  RH  050%=      5-min Rain = 0
KSM2 201002Z 17008KT 25/14 A2996 RMK A01 T02460135  RH  050%=      5-min Rain = 0
KSM2 201003Z 17008KT 25/14 A2996 RMK A01 T02460136  RH  050%=      5-min Rain = 0
KSM2 201004Z 17008KT 25/14 A2996 RMK A01 T02460136  RH  050%=      5-min Rain = 0
KSM2 201005Z 18008G13KT 25/14 A2996 RMK A01 T02450136  RH  051%=      5-min Rain = 0
KSM2 201006Z 17008KT 25/14 A2996 RMK A01 T02450136  RH  051%=      5-min Rain = 0
KSM2 201007Z 17008KT 24/14 A2996 RMK A01 T02440136  RH  051%=      5-min Rain = 0
KSM2 201008Z 17009KT 24/14 A2996 RMK A01 T02440136  RH  051%=      5-min Rain = 0
KSM2 201009Z 18009KT 24/14 A2996 RMK A01 T02440136  RH  051%=      5-min Rain = 0
KSM2 201010Z 18008KT 24/14 A2996 RMK A01 T02440136  RH  051%=      5-min Rain = 0
KSM2 201011Z 18008KT 24/14 A2996 RMK A01 T02440136  RH  051%=      5-min Rain = 0
KSM2 201012Z 18010KT 24/14 A2996 RMK A01 T02440137  RH  051%=      5-min Rain = 0
KSM2 201013Z 18009KT 24/14 A2996 RMK A01 T02440137  RH  051%=      5-min Rain = 0
KSM2 201014Z 18009KT 24/14 A2996 RMK A01 T02440137  RH  051%=      5-min Rain = 0
KSM2 201015Z 18008KT 24/14 A2996 RMK A01 T02430137  RH  051%=      5-min Rain = 0
KSM2 201016Z 18008KT 24/14 A2996 RMK A01 T02430137  RH  052%=      5-min Rain = 0
KSM2 201017Z 17006KT 24/14 A2996 RMK A01 T02430137  RH  052%=      5-min Rain = 0
KSM2 201018Z 17008KT 24/14 A2996 RMK A01 T02420137  RH  052%=      5-min Rain = 0
KSM2 201019Z 17007KT 24/14 A2996 RMK A01 T02420137  RH  052%=      5-min Rain = 0
KSM2 201020Z 17007KT 24/14 A2996 RMK A01 T02410137  RH  052%=      5-min Rain = 0
KSM2 201021Z 18008KT 24/14 A2996 RMK A01 T02410137  RH  052%=      5-min Rain = 0
KSM2 201022Z 17007KT 24/14 A2996 RMK A01 T02410137  RH  052%=      5-min Rain = 0
KSM2 201023Z 17007KT 24/14 A2996 RMK A01 T02400137  RH  053%=      5-min Rain = 0
KSM2 201024Z 17008KT 24/14 A2996 RMK A01 T02400137  RH  053%=      5-min Rain = 0
KSM2 201025Z 17007KT 24/14 A2996 RMK A01 T02400137  RH  053%=      5-min Rain = 0
KSM2 201026Z 17008KT 24/14 A2996 RMK A01 T02400137  RH  053%=      5-min Rain = 0
KSM2 201027Z 17007KT 24/14 A2996 RMK A01 T02400137  RH  053%=      5-min Rain = 0
KSM2 201028Z 16007KT 24/14 A2996 RMK A01 T02400138  RH  053%=      5-min Rain = 0
KSM2 201029Z 17007KT 24/14 A2996 RMK A01 T02390137  RH  053%=      5-min Rain = 0
KSM2 201030Z 16007KT 24/14 A2996 RMK A01 T02390137  RH  053%=      5-min Rain = 0
KSM2 201031Z 17008KT 24/14 A2996 RMK A01 T02390138  RH  053%=      5-min Rain = 0
KSM2 201032Z 17007KT 24/14 A2996 RMK A01 T02390138  RH  053%=      5-min Rain = 0
KSM2 201033Z 16007KT 24/14 A2996 RMK A01 T02390138  RH  053%=      5-min Rain = 0
KSM2 201034Z 16008KT 24/14 A2996 RMK A01 T02390138  RH  053%=      5-min Rain = 0
KSM2 201035Z 16008KT 24/14 A2996 RMK A01 T02390138  RH  053%=      5-min Rain = 0
KSM2 201036Z 16008KT 24/14 A2996 RMK A01 T02390138  RH  053%=      5-min Rain = 0
KSM2 201037Z 16008KT 24/14 A2996 RMK A01 T02390138  RH  053%=      5-min Rain = 0
KSM2 201038Z 17007KT 24/14 A2996 RMK A01 T02390138  RH  053%=      5-min Rain = 0
KSM2 201039Z 16008KT 24/14 A2996 RMK A01 T02390138  RH  053%=      5-min Rain = 0
KSM2 201040Z 17009KT 24/14 A2996 RMK A01 T02390138  RH  053%=      5-min Rain = 0
KSM2 201041Z 16008KT 24/14 A2996 RMK A01 T02390138  RH  053%=      5-min Rain = 0
KSM2 201042Z 16008KT 24/14 A2996 RMK A01 T02380138  RH  053%=      5-min Rain = 0
KSM2 201043Z 16008KT 24/14 A2996 RMK A01 T02380138  RH  053%=      5-min Rain = 0
KSM2 201044Z 17008KT 24/14 A2996 RMK A01 T02380138  RH  054%=      5-min Rain = 0
KSM2 201045Z 16007KT 24/14 A2996 RMK A01 T02380138  RH  054%=      5-min Rain = 0
KSM2 201046Z 17006KT 24/14 A2996 RMK A01 T02370138  RH  054%=      5-min Rain = 0
KSM2 201047Z 16008KT 24/14 A2996 RMK A01 T02370138  RH  054%=      5-min Rain = 0
KSM2 201048Z 17007KT 24/14 A2996 RMK A01 T02370138  RH  054%=      5-min Rain = 0
KSM2 201049Z 17008KT 24/14 A2996 RMK A01 T02370138  RH  054%=      5-min Rain = 0
KSM2 201050Z 17007KT 24/14 A2996 RMK A01 T02370138  RH  054%=      5-min Rain = 0
KSM2 201051Z 16008KT 24/14 A2996 RMK A01 T02370138  RH  054%=      5-min Rain = 0
KSM2 201052Z 17007KT 24/14 A2996 RMK A01 T02370138  RH  054%=      5-min Rain = 0
KSM2 201053Z 17008KT 24/14 A2996 RMK A01 T02370138  RH  054%=      5-min Rain = 0
KSM2 201054Z 16007KT 24/14 A2996 RMK A01 T02370138  RH  054%=      5-min Rain = 0
KSM2 201055Z 16008KT 24/14 A2996 RMK A01 T02360138  RH  054%=      5-min Rain = 0
KSM2 201056Z 16009KT 24/14 A2996 RMK A01 T02360138  RH  054%=      5-min Rain = 0
KSM2 201057Z 17009KT 24/14 A2996 RMK A01 T02360138  RH  054%=      5-min Rain = 0
KSM2 201058Z 17008KT 24/14 A2996 RMK A01 T02360138  RH  054%=      5-min Rain = 0
KSM2 201059Z 16008KT 24/14 A2996 RMK A01 T02360138  RH  054%=      5-min Rain = 0
KSM2 201100Z 17008KT 24/14 A2996 RMK A01 T02360138  RH  054%=      5-min Rain = 0
KSM2 201101Z 17009KT 24/14 A2996 RMK A01 T02350138  RH  054%=      5-min Rain = 0
KSM2 201102Z 16007KT 24/14 A2996 RMK A01 T02360138  RH  054%=      5-min Rain = 0
KSM2 201103Z 16008KT 24/14 A2996 RMK A01 T02360138  RH  054%=      5-min Rain = 0
KSM2 201104Z 17009KT 24/14 A2996 RMK A01 T02360138  RH  054%=      5-min Rain = 0
KSM2 201105Z 17008KT 24/14 A2996 RMK A01 T02350138  RH  055%=      5-min Rain = 0
KSM2 201106Z 16008KT 24/14 A2996 RMK A01 T02350138  RH  055%=      5-min Rain = 0
KSM2 201107Z 16008KT 23/14 A2996 RMK A01 T02340138  RH  055%=      5-min Rain = 0
KSM2 201108Z 16008KT 23/14 A2996 RMK A01 T02340138  RH  055%=      5-min Rain = 0
KSM2 201109Z 16008KT 23/14 A2996 RMK A01 T02330138  RH  055%=      5-min Rain = 0
KSM2 201110Z 16009KT 23/14 A2996 RMK A01 T02330138  RH  055%=      5-min Rain = 0
KSM2 201111Z 16010KT 23/14 A2996 RMK A01 T02330138  RH  055%=      5-min Rain = 0
KSM2 201112Z 16008KT 23/14 A2996 RMK A01 T02330139  RH  055%=      5-min Rain = 0
KSM2 201113Z 16009KT 23/14 A2996 RMK A01 T02330139  RH  055%=      5-min Rain = 0
KSM2 201114Z 16009KT 23/14 A2996 RMK A01 T02330138  RH  055%=      5-min Rain = 0
KSM2 201115Z 16009KT 23/14 A2996 RMK A01 T02330138  RH  055%=      5-min Rain = 0
KSM2 201116Z 17009KT 23/14 A2996 RMK A01 T02330138  RH  055%=      5-min Rain = 0
KSM2 201117Z 16008KT 23/14 A2996 RMK A01 T02330139  RH  055%=      5-min Rain = 0
KSM2 201118Z 17008KT 23/14 A2996 RMK A01 T02330139  RH  056%=      5-min Rain = 0
KSM2 201119Z 17008KT 23/14 A2996 RMK A01 T02320139  RH  056%=      5-min Rain = 0
KSM2 201120Z 17009KT 23/14 A2996 RMK A01 T02320138  RH  056%=      5-min Rain = 0
KSM2 201121Z 16008KT 23/14 A2996 RMK A01 T02320138  RH  055%=      5-min Rain = 0
KSM2 201122Z 17008KT 23/14 A2996 RMK A01 T02320139  RH  056%=      5-min Rain = 0
KSM2 201123Z 17008KT 23/14 A2996 RMK A01 T02320139  RH  056%=      5-min Rain = 0
KSM2 201124Z 17006KT 23/14 A2996 RMK A01 T02320139  RH  056%=      5-min Rain = 0
KSM2 201125Z 17009KT 23/14 A2996 RMK A01 T02320139  RH  056%=      5-min Rain = 0
KSM2 201126Z 17009KT 23/14 A2996 RMK A01 T02310139  RH  056%=      5-min Rain = 0
KSM2 201127Z 17009KT 23/14 A2996 RMK A01 T02310139  RH  056%=      5-min Rain = 0
KSM2 201128Z 16008KT 23/14 A2996 RMK A01 T02310139  RH  056%=      5-min Rain = 0
KSM2 201129Z 16008KT 23/14 A2996 RMK A01 T02310139  RH  056%=      5-min Rain = 0
KSM2 201130Z 16010KT 23/14 A2996 RMK A01 T02310139  RH  056%=      5-min Rain = 0
KSM2 201131Z 16008KT 23/14 A2996 RMK A01 T02310139  RH  056%=      5-min Rain = 0
KSM2 201132Z 16009KT 23/14 A2996 RMK A01 T02310139  RH  056%=      5-min Rain = 0
KSM2 201133Z 16007KT 23/14 A2996 RMK A01 T02300139  RH  056%=      5-min Rain = 0
KSM2 201134Z 16008KT 23/14 A2996 RMK A01 T02300139  RH  057%=      5-min Rain = 0
KSM2 201135Z 16009KT 23/14 A2996 RMK A01 T02290139  RH  057%=      5-min Rain = 0
KSM2 201136Z 16009KT 23/14 A2996 RMK A01 T02290139  RH  057%=      5-min Rain = 0
KSM2 201137Z 16007KT 23/14 A2996 RMK A01 T02290139  RH  057%=      5-min Rain = 0
KSM2 201138Z 16009KT 23/14 A2996 RMK A01 T02280139  RH  057%=      5-min Rain = 0
KSM2 201139Z 16008KT 23/14 A2996 RMK A01 T02280139  RH  057%=      5-min Rain = 0
KSM2 201140Z 16008KT 23/14 A2996 RMK A01 T02280139  RH  057%=      5-min Rain = 0
KSM2 201141Z 16007KT 23/14 A2996 RMK A01 T02280139  RH  057%=      5-min Rain = 0
KSM2 201142Z 16008KT 23/14 A2996 RMK A01 T02280139  RH  057%=      5-min Rain = 0
KSM2 201143Z 16007KT 23/14 A2996 RMK A01 T02280139  RH  057%=      5-min Rain = 0
KSM2 201144Z 16006KT 23/14 A2996 RMK A01 T02270139  RH  057%=      5-min Rain = 0
KSM2 201145Z 16007KT 23/14 A2996 RMK A01 T02270139  RH  058%=      5-min Rain = 0
KSM2 201146Z 16007KT 23/14 A2996 RMK A01 T02270139  RH  058%=      5-min Rain = 0
KSM2 201147Z 16009KT 23/14 A2996 RMK A01 T02260139  RH  058%=      5-min Rain = 0
KSM2 201148Z 16009KT 23/14 A2996 RMK A01 T02270139  RH  058%=      5-min Rain = 0
KSM2 201149Z 16009KT 23/14 A2996 RMK A01 T02270139  RH  058%=      5-min Rain = 0
KSM2 201150Z 16007KT 23/14 A2996 RMK A01 T02260140  RH  058%=      5-min Rain = 0
KSM2 201151Z 16008KT 23/14 A2996 RMK A01 T02260139  RH  058%=      5-min Rain = 0
KSM2 201152Z 16008KT 23/14 A2996 RMK A01 T02260140  RH  058%=      5-min Rain = 0
KSM2 201153Z 16007KT 23/14 A2996 RMK A01 T02250140  RH  058%=      5-min Rain = 0
KSM2 201154Z 16007KT 23/14 A2996 RMK A01 T02260140  RH  058%=      5-min Rain = 0
KSM2 201155Z 16008KT 23/14 A2996 RMK A01 T02260140  RH  058%=      5-min Rain = 0
KSM2 201156Z 16008KT 23/14 A2996 RMK A01 T02260140  RH  058%=      5-min Rain = 0
KSM2 201157Z 16008KT 23/14 A2996 RMK A01 T02250140  RH  058%=      5-min Rain = 0
KSM2 201158Z 16008KT 23/14 A2996 RMK A01 T02250140  RH  058%=      5-min Rain = 0
KSM2 201159Z 16007KT 23/14 A2996 RMK A01 T02260140  RH  058%=      5-min Rain = 0
KSM2 201200Z 17007KT 23/14 A2996 RMK A01 T02250141  RH  059%=      5-min Rain = 0
KSM2 201201Z 16010KT 23/14 A2996 RMK A01 T02250140  RH  059%=      5-min Rain = 0
KSM2 201202Z 16009KT 23/14 A2996 RMK A01 T02250141  RH  059%=      5-min Rain = 0
KSM2 201203Z 16009KT 23/14 A2996 RMK A01 T02250140  RH  059%=      5-min Rain = 0
KSM2 201204Z 16009KT 23/14 A2996 RMK A01 T02260141  RH  059%=      5-min Rain = 0
KSM2 201205Z 17009KT 23/14 A2996 RMK A01 T02270141  RH  058%=      5-min Rain = 0
KSM2 201206Z 16009KT 23/14 A2997 RMK A01 T02270141  RH  059%=      5-min Rain = 0
KSM2 201207Z 16010KT 23/14 A2997 RMK A01 T02270141  RH  059%=      5-min Rain = 0
KSM2 201208Z 17009KT 23/14 A2997 RMK A01 T02260141  RH  059%=      5-min Rain = 0
KSM2 201209Z 17008KT 23/14 A2997 RMK A01 T02260142  RH  059%=      5-min Rain = 0
KSM2 201210Z 17007KT 23/14 A2997 RMK A01 T02260142  RH  059%=      5-min Rain = 0
KSM2 201211Z 17008KT 23/14 A2997 RMK A01 T02260142  RH  059%=      5-min Rain = 0
KSM2 201212Z 16007KT 23/14 A2997 RMK A01 T02250142  RH  059%=      5-min Rain = 0
KSM2 201213Z 17008KT 23/14 A2997 RMK A01 T02250141  RH  059%=      5-min Rain = 0
KSM2 201214Z 17008KT 23/14 A2997 RMK A01 T02250142  RH  059%=      5-min Rain = 0
KSM2 201215Z 17007KT 23/14 A2997 RMK A01 T02250142  RH  059%=      5-min Rain = 0
KSM2 201216Z 17007KT 23/14 A2997 RMK A01 T02250142  RH  059%=      5-min Rain = 0
KSM2 201217Z 17006KT 23/14 A2997 RMK A01 T02250142  RH  059%=      5-min Rain = 0
KSM2 201218Z 17009KT 23/14 A2997 RMK A01 T02250142  RH  059%=      5-min Rain = 0
KSM2 201219Z 17008KT 23/14 A2997 RMK A01 T02250142  RH  059%=      5-min Rain = 0
KSM2 201220Z 17008KT 23/14 A2997 RMK A01 T02250143  RH  059%=      5-min Rain = 0
KSM2 201221Z 18008KT 23/14 A2997 RMK A01 T02250142  RH  059%=      5-min Rain = 0
KSM2 201222Z 17007KT 23/14 A2996 RMK A01 T02260142  RH  059%=      5-min Rain = 0
KSM2 201223Z 18008KT 23/14 A2996 RMK A01 T02260143  RH  059%=      5-min Rain = 0
KSM2 201224Z 17007KT 23/14 A2996 RMK A01 T02260143  RH  059%=      5-min Rain = 0
KSM2 201225Z 17008KT 23/14 A2996 RMK A01 T02250143  RH  059%=      5-min Rain = 0
KSM2 201226Z 17008KT 23/14 A2996 RMK A01 T02260143  RH  059%=      5-min Rain = 0
KSM2 201227Z 18009KT 23/14 A2996 RMK A01 T02260143  RH  059%=      5-min Rain = 0
KSM2 201228Z 18008KT 23/14 A2996 RMK A01 T02270143  RH  059%=      5-min Rain = 0
KSM2 201229Z 18009KT 23/14 A2997 RMK A01 T02270144  RH  059%=      5-min Rain = 0
KSM2 201230Z 17008KT 23/14 A2996 RMK A01 T02260143  RH  059%=      5-min Rain = 0
KSM2 201231Z 18007KT 23/14 A2996 RMK A01 T02270144  RH  059%=      5-min Rain = 0
KSM2 201232Z 17008KT 23/15 A2996 RMK A01 T02270145  RH  060%=      5-min Rain = 0
KSM2 201233Z 17009KT 23/14 A2996 RMK A01 T02270144  RH  059%=      5-min Rain = 0
KSM2 201234Z 18007KT 23/14 A2996 RMK A01 T02270144  RH  059%=      5-min Rain = 0
KSM2 201235Z 18007KT 23/15 A2996 RMK A01 T02270145  RH  059%=      5-min Rain = 0
KSM2 201236Z 19006KT 23/15 A2997 RMK A01 T02280145  RH  059%=      5-min Rain = 0
KSM2 201237Z 18008KT 23/15 A2997 RMK A01 T02280145  RH  060%=      5-min Rain = 0
KSM2 201238Z 18008KT 23/15 A2997 RMK A01 T02280146  RH  060%=      5-min Rain = 0
KSM2 201239Z 18009KT 23/15 A2997 RMK A01 T02280146  RH  060%=      5-min Rain = 0
KSM2 201240Z 18010KT 23/15 A2997 RMK A01 T02280146  RH  060%=      5-min Rain = 0
KSM2 201241Z 18009KT 23/15 A2997 RMK A01 T02280146  RH  060%=      5-min Rain = 0
KSM2 201242Z 17009KT 23/15 A2997 RMK A01 T02280146  RH  060%=      5-min Rain = 0
KSM2 201243Z 17008KT 23/15 A2997 RMK A01 T02280146  RH  060%=      5-min Rain = 0
KSM2 201244Z 17011KT 23/15 A2997 RMK A01 T02280146  RH  060%=      5-min Rain = 0
KSM2 201245Z 17009KT 23/15 A2997 RMK A01 T02280146  RH  060%=      5-min Rain = 0
KSM2 201246Z 17008KT 23/15 A2997 RMK A01 T02290147  RH  060%=      5-min Rain = 0
KSM2 201247Z 18008KT 23/15 A2997 RMK A01 T02290147  RH  060%=      5-min Rain = 0
KSM2 201248Z 17009KT 23/15 A2997 RMK A01 T02290147  RH  060%=      5-min Rain = 0
KSM2 201249Z 18009KT 23/15 A2997 RMK A01 T02290147  RH  060%=      5-min Rain = 0
KSM2 201250Z 17009KT 23/15 A2997 RMK A01 T02300147  RH  060%=      5-min Rain = 0
KSM2 201251Z 17009KT 23/15 A2997 RMK A01 T02300147  RH  060%=      5-min Rain = 0
KSM2 201252Z 17010KT 23/15 A2997 RMK A01 T02300148  RH  060%=      5-min Rain = 0
KSM2 201253Z 17010KT 23/15 A2997 RMK A01 T02300148  RH  060%=      5-min Rain = 0
KSM2 201254Z 17008KT 23/15 A2997 RMK A01 T02310148  RH  060%=      5-min Rain = 0
KSM2 201255Z 17008KT 23/15 A2997 RMK A01 T02310148  RH  060%=      5-min Rain = 0
KSM2 201256Z 17009KT 23/15 A2997 RMK A01 T02320149  RH  060%=      5-min Rain = 0
KSM2 201257Z 18008KT 23/15 A2997 RMK A01 T02310148  RH  060%=      5-min Rain = 0
KSM2 201258Z 18009KT 23/15 A2997 RMK A01 T02320149  RH  060%=      5-min Rain = 0
KSM2 201259Z 18012KT 23/15 A2997 RMK A01 T02320149  RH  059%=      5-min Rain = 0
KSM2 201300Z 18010KT 23/15 A2997 RMK A01 T02320148  RH  059%=      5-min Rain = 0
KSM2 201301Z 17009KT 23/15 A2997 RMK A01 T02320149  RH  059%=      5-min Rain = 0
KSM2 201302Z 17011KT 23/15 A2997 RMK A01 T02330149  RH  059%=      5-min Rain = 0
KSM2 201303Z 18008KT 23/15 A2997 RMK A01 T02330150  RH  059%=      5-min Rain = 0
KSM2 201304Z 17009KT 23/15 A2997 RMK A01 T02330150  RH  059%=      5-min Rain = 0
KSM2 201305Z 18009KT 23/15 A2997 RMK A01 T02340151  RH  060%=      5-min Rain = 0
KSM2 201306Z 18008KT 23/15 A2997 RMK A01 T02340151  RH  059%=      5-min Rain = 0
KSM2 201307Z 18011KT 23/15 A2998 RMK A01 T02340151  RH  059%=      5-min Rain = 0
KSM2 201308Z 18009KT 23/15 A2998 RMK A01 T02340151  RH  059%=      5-min Rain = 0
KSM2 201309Z 18010KT 24/15 A2998 RMK A01 T02350151  RH  059%=      5-min Rain = 0
KSM2 201310Z 18010KT 24/15 A2998 RMK A01 T02350151  RH  059%=      5-min Rain = 0
KSM2 201311Z 18008KT 24/15 A2997 RMK A01 T02350151  RH  059%=      5-min Rain = 0
KSM2 201312Z 17009KT 24/15 A2997 RMK A01 T02360152  RH  059%=      5-min Rain = 0
KSM2 201313Z 17010KT 24/15 A2997 RMK A01 T02360152  RH  059%=      5-min Rain = 0
KSM2 201314Z 17011KT 24/15 A2997 RMK A01 T02370152  RH  059%=      5-min Rain = 0
KSM2 201315Z 17010KT 24/15 A2997 RMK A01 T02370153  RH  059%=      5-min Rain = 0
KSM2 201316Z 17011G16KT 24/15 A2997 RMK A01 T02370152  RH  059%=      5-min Rain = 0
KSM2 201317Z 18010KT 24/15 A2997 RMK A01 T02360151  RH  059%=      5-min Rain = 0
KSM2 201318Z 18009KT 24/15 A2997 RMK A01 T02370151  RH  059%=      5-min Rain = 0
KSM2 201319Z 17010KT 24/15 A2997 RMK A01 T02370152  RH  059%=      5-min Rain = 0
KSM2 201320Z 18010KT 24/15 A2997 RMK A01 T02380152  RH  059%=      5-min Rain = 0
KSM2 201321Z 18010KT 24/15 A2997 RMK A01 T02380152  RH  059%=      5-min Rain = 0
KSM2 201322Z 18011KT 24/15 A2997 RMK A01 T02380153  RH  059%=      5-min Rain = 0
KSM2 201323Z 18010KT 24/15 A2997 RMK A01 T02380154  RH  059%=      5-min Rain = 0
KSM2 201324Z 17011KT 24/15 A2997 RMK A01 T02380153  RH  059%=      5-min Rain = 0
KSM2 201325Z 18011KT 24/15 A2997 RMK A01 T02390153  RH  059%=      5-min Rain = 0
KSM2 201326Z 18011KT 24/15 A2997 RMK A01 T02390154  RH  059%=      5-min Rain = 0
KSM2 201327Z 17012KT 24/15 A2997 RMK A01 T02400153  RH  058%=      5-min Rain = 0
KSM2 201328Z 17012KT 24/15 A2997 RMK A01 T02400153  RH  058%=      5-min Rain = 0
KSM2 201329Z 17011G16KT 24/15 A2997 RMK A01 T02400153  RH  058%=      5-min Rain = 0
KSM2 201330Z 17012KT 24/15 A2997 RMK A01 T02410154  RH  058%=      5-min Rain = 0
KSM2 201331Z 18010KT 24/16 A2997 RMK A01 T02420155  RH  058%=      5-min Rain = 0
KSM2 201332Z 17012KT 24/16 A2997 RMK A01 T02420155  RH  058%=      5-min Rain = 0
KSM2 201333Z 17011KT 24/16 A2997 RMK A01 T02420155  RH  058%=      5-min Rain = 0
KSM2 201334Z 17012KT 24/15 A2997 RMK A01 T02420154  RH  058%=      5-min Rain = 0
KSM2 201335Z 17010KT 24/16 A2997 RMK A01 T02430155  RH  058%=      5-min Rain = 0
KSM2 201336Z 17012KT 24/16 A2997 RMK A01 T02440155  RH  058%=      5-min Rain = 0
KSM2 201337Z 17011KT 24/16 A2997 RMK A01 T02440155  RH  058%=      5-min Rain = 0
KSM2 201338Z 17011G16KT 25/16 A2997 RMK A01 T02450156  RH  058%=      5-min Rain = 0
KSM2 201339Z 18012KT 25/16 A2997 RMK A01 T02450155  RH  057%=      5-min Rain = 0
KSM2 201340Z 18011KT 25/16 A2997 RMK A01 T02450155  RH  057%=      5-min Rain = 0
KSM2 201341Z 17009KT 25/16 A2997 RMK A01 T02450157  RH  058%=      5-min Rain = 0
KSM2 201342Z 17011KT 25/16 A2997 RMK A01 T02470156  RH  057%=      5-min Rain = 0
KSM2 201343Z 17013G18KT 25/16 A2997 RMK A01 T02470156  RH  057%=      5-min Rain = 0
KSM2 201344Z 17013KT 25/16 A2997 RMK A01 T02470155  RH  057%=      5-min Rain = 0
KSM2 201345Z 17013KT 25/16 A2997 RMK A01 T02470156  RH  057%=      5-min Rain = 0
KSM2 201346Z 17012KT 25/16 A2997 RMK A01 T02470156  RH  057%=      5-min Rain = 0
KSM2 201347Z 17012KT 25/16 A2997 RMK A01 T02470155  RH  057%=      5-min Rain = 0
KSM2 201348Z 17011KT 25/16 A2997 RMK A01 T02470156  RH  057%=      5-min Rain = 0
KSM2 201349Z 16011KT 25/16 A2997 RMK A01 T02480156  RH  057%=      5-min Rain = 0
KSM2 201350Z 18012KT 25/16 A2997 RMK A01 T02490157  RH  057%=      5-min Rain = 0
KSM2 201351Z 19012KT 25/16 A2997 RMK A01 T02490157  RH  057%=      5-min Rain = 0
KSM2 201352Z 18012KT 25/16 A2997 RMK A01 T02490158  RH  057%=      5-min Rain = 0
KSM2 201353Z 18012KT 25/16 A2997 RMK A01 T02500158  RH  056%=      5-min Rain = 0
KSM2 201354Z 18011KT 25/16 A2997 RMK A01 T02510158  RH  056%=      5-min Rain = 0
KSM2 201355Z 18011KT 25/16 A2997 RMK A01 T02520158  RH  056%=      5-min Rain = 0
KSM2 201356Z 18011KT 25/16 A2998 RMK A01 T02520159  RH  056%=      5-min Rain = 0
KSM2 201357Z 19012G18KT 25/16 A2998 RMK A01 T02530158  RH  056%=      5-min Rain = 0
KSM2 201358Z 18011KT 25/16 A2998 RMK A01 T02540159  RH  056%=      5-min Rain = 0
KSM2 201359Z 19012KT 26/16 A2998 RMK A01 T02560160  RH  055%=      5-min Rain = 0
KSM2 201400Z 18015KT 26/16 A2997 RMK A01 T02550159  RH  055%=      5-min Rain = 0
KSM2 201401Z 18014G20KT 26/16 A2997 RMK A01 T02550159  RH  055%=      5-min Rain = 0
KSM2 201402Z 19017KT 26/16 A2997 RMK A01 T02550158  RH  055%=      5-min Rain = 0
KSM2 201403Z 19014KT 26/16 A2997 RMK A01 T02550159  RH  055%=      5-min Rain = 0
KSM2 201404Z 19014KT 26/16 A2997 RMK A01 T02560159  RH  055%=      5-min Rain = 0
KSM2 201405Z 18014KT 26/16 A2997 RMK A01 T02560160  RH  055%=      5-min Rain = 0
KSM2 201406Z 18013KT 26/16 A2998 RMK A01 T02560160  RH  055%=      5-min Rain = 0
KSM2 201407Z 19016KT 26/16 A2998 RMK A01 T02570160  RH  055%=      5-min Rain = 0
KSM2 201408Z 18015KT 26/16 A2998 RMK A01 T02580160  RH  055%=      5-min Rain = 0
KSM2 201409Z 19016KT 26/16 A2997 RMK A01 T02580160  RH  055%=      5-min Rain = 0
KSM2 201410Z 18013KT 26/16 A2997 RMK A01 T02580160  RH  055%=      5-min Rain = 0
KSM2 201411Z 19016KT 26/16 A2997 RMK A01 T02580159  RH  054%=      5-min Rain = 0
KSM2 201412Z 19016KT 26/16 A2997 RMK A01 T02580159  RH  054%=      5-min Rain = 0
KSM2 201413Z 19016KT 26/16 A2997 RMK A01 T02580159  RH  054%=      5-min Rain = 0
KSM2 201414Z 19017G22KT 26/16 A2997 RMK A01 T02590158  RH  054%=      5-min Rain = 0
KSM2 201415Z 19014KT 26/16 A2997 RMK A01 T02590160  RH  054%=      5-min Rain = 0
KSM2 201416Z 19013KT 26/16 A2997 RMK A01 T02600161  RH  054%=      5-min Rain = 0
KSM2 201417Z 18013KT 26/16 A2997 RMK A01 T02610161  RH  054%=      5-min Rain = 0
KSM2 201418Z 19011KT 26/16 A2997 RMK A01 T02620162  RH  054%=      5-min Rain = 0
KSM2 201419Z 19016KT 26/16 A2997 RMK A01 T02620162  RH  054%=      5-min Rain = 0
KSM2 201420Z 18018KT 26/16 A2997 RMK A01 T02620160  RH  054%=      5-min Rain = 0
KSM2 201421Z 18016KT 26/16 A2997 RMK A01 T02610160  RH  054%=      5-min Rain = 0
KSM2 201422Z 18016KT 26/16 A2997 RMK A01 T02600159  RH  054%=      5-min Rain = 0
KSM2 201423Z 19017KT 26/16 A2997 RMK A01 T02600160  RH  054%=      5-min Rain = 0
KSM2 201424Z 18013KT 26/16 A2997 RMK A01 T02590161  RH  055%=      5-min Rain = 0
KSM2 201425Z 17014KT 26/16 A2997 RMK A01 T02600161  RH  055%=      5-min Rain = 0
KSM2 201426Z 18013KT 26/16 A2997 RMK A01 T02600160  RH  054%=      5-min Rain = 0
KSM2 201427Z 18014KT 26/16 A2997 RMK A01 T02610160  RH  054%=      5-min Rain = 0
KSM2 201428Z 18017KT 26/16 A2998 RMK A01 T02610160  RH  053%=      5-min Rain = 0
KSM2 201429Z 18014G21KT 26/16 A2997 RMK A01 T02620160  RH  054%=      5-min Rain = 0
KSM2 201430Z 18015KT 26/16 A2997 RMK A01 T02610160  RH  053%=      5-min Rain = 0
KSM2 201431Z 18017KT 26/16 A2997 RMK A01 T02620161  RH  054%=      5-min Rain = 0
KSM2 201432Z 18016G21KT 26/16 A2997 RMK A01 T02630162  RH  054%=      5-min Rain = 0
KSM2 201433Z 18015G20KT 26/16 A2997 RMK A01 T02640162  RH  053%=      5-min Rain = 0
KSM2 201434Z 18016KT 26/16 A2998 RMK A01 T02640161  RH  053%=      5-min Rain = 0
KSM2 201435Z 19017KT 26/16 A2997 RMK A01 T02640160  RH  053%=      5-min Rain = 0
KSM2 201436Z 18017KT 26/16 A2998 RMK A01 T02640162  RH  053%=      5-min Rain = 0
KSM2 201437Z 17014G19KT 26/16 A2997 RMK A01 T02640162  RH  053%=      5-min Rain = 0
KSM2 201438Z 18015KT 26/16 A2997 RMK A01 T02640161  RH  053%=      5-min Rain = 0
KSM2 201439Z 18017KT 26/16 A2997 RMK A01 T02640161  RH  053%=      5-min Rain = 0
KSM2 201440Z 19016KT 27/16 A2997 RMK A01 T02650161  RH  053%=      5-min Rain = 0
KSM2 201441Z 18015KT 27/16 A2997 RMK A01 T02650162  RH  053%=      5-min Rain = 0
KSM2 201442Z 18015KT 27/16 A2997 RMK A01 T02670163  RH  053%=      5-min Rain = 0
KSM2 201443Z 18014G19KT 27/16 A2997 RMK A01 T02680164  RH  053%=      5-min Rain = 0
KSM2 201444Z 18015KT 27/16 A2997 RMK A01 T02690162  RH  052%=      5-min Rain = 0
KSM2 201445Z 18016KT 27/16 A2997 RMK A01 T02690162  RH  052%=      5-min Rain = 0
KSM2 201446Z 19016KT 27/16 A2997 RMK A01 T02680163  RH  052%=      5-min Rain = 0
KSM2 201447Z 20015KT 27/16 A2997 RMK A01 T02670163  RH  053%=      5-min Rain = 0
KSM2 201448Z 19015KT 27/16 A2997 RMK A01 T02680163  RH  053%=      5-min Rain = 0
KSM2 201449Z 18015KT 27/16 A2997 RMK A01 T02680163  RH  053%=      5-min Rain = 0
KSM2 201450Z 19016G21KT 27/16 A2997 RMK A01 T02680163  RH  053%=      5-min Rain = 0
KSM2 201451Z 19016KT 27/16 A2997 RMK A01 T02680163  RH  053%=      5-min Rain = 0
KSM2 201452Z 19013KT 27/16 A2997 RMK A01 T02680164  RH  053%=      5-min Rain = 0
KSM2 201453Z 18013KT 27/16 A2997 RMK A01 T02700164  RH  052%=      5-min Rain = 0
KSM2 201454Z 19015KT 27/16 A2997 RMK A01 T02710162  RH  051%=      5-min Rain = 0
KSM2 201455Z 19017KT 27/16 A2997 RMK A01 T02700163  RH  052%=      5-min Rain = 0
KSM2 201456Z 18018KT 27/16 A2997 RMK A01 T02690163  RH  052%=      5-min Rain = 0
KSM2 201457Z 19016KT 27/16 A2997 RMK A01 T02690163  RH  052%=      5-min Rain = 0
KSM2 201458Z 19015G20KT 27/16 A2997 RMK A01 T02680163  RH  052%=      5-min Rain = 0
KSM2 201459Z 18015KT 27/16 A2997 RMK A01 T02690164  RH  052%=      5-min Rain = 0
KSM2 201500Z 18015KT 27/17 A2997 RMK A01 T02700165  RH  053%=      5-min Rain = 0
KSM2 201501Z 18012G18KT 27/16 A2997 RMK A01 T02710164  RH  052%=      5-min Rain = 0
KSM2 201502Z 18013KT 27/16 A2997 RMK A01 T02710164  RH  052%=      5-min Rain = 0
KSM2 201503Z 18017KT 27/16 A2997 RMK A01 T02720162  RH  051%=      5-min Rain = 0
KSM2 201504Z 18017KT 27/16 A2997 RMK A01 T02720163  RH  051%=      5-min Rain = 0
KSM2 201505Z 19014KT 27/16 A2997 RMK A01 T02720164  RH  052%=      5-min Rain = 0
KSM2 201506Z 19012KT 27/17 A2997 RMK A01 T02730167  RH  052%=      5-min Rain = 0
KSM2 201507Z 18013KT 28/17 A2997 RMK A01 T02750166  RH  051%=      5-min Rain = 0
KSM2 201508Z 18013KT 27/16 A2997 RMK A01 T02740164  RH  051%=      5-min Rain = 0
KSM2 201509Z 19013KT 27/17 A2997 RMK A01 T02740166  RH  051%=      5-min Rain = 0
KSM2 201510Z 19014KT 28/17 A2997 RMK A01 T02760165  RH  051%=      5-min Rain = 0
KSM2 201511Z 18014KT 28/16 A2997 RMK A01 T02770164  RH  050%=      5-min Rain = 0
KSM2 201512Z 18013KT 28/17 A2997 RMK A01 T02760166  RH  051%=      5-min Rain = 0
KSM2 201513Z 19015KT 28/16 A2997 RMK A01 T02780164  RH  050%=      5-min Rain = 0
KSM2 201514Z 19012KT 28/17 A2997 RMK A01 T02780167  RH  051%=      5-min Rain = 0
KSM2 201515Z 19013KT 28/17 A2997 RMK A01 T02800166  RH  050%=      5-min Rain = 0
KSM2 201516Z 19016KT 28/17 A2997 RMK A01 T02800167  RH  050%=      5-min Rain = 0
KSM2 201517Z 18016KT 28/17 A2997 RMK A01 T02790166  RH  050%=      5-min Rain = 0
KSM2 201518Z 20015KT 28/17 A2997 RMK A01 T02780165  RH  050%=      5-min Rain = 0
KSM2 201519Z 20014KT 28/16 A2997 RMK A01 T02780164  RH  050%=      5-min Rain = 0
KSM2 201520Z 20016KT 28/16 A2997 RMK A01 T02800164  RH  049%=      5-min Rain = 0
KSM2 201521Z 20015KT 28/16 A2997 RMK A01 T02800164  RH  049%=      5-min Rain = 0
KSM2 201522Z 19014KT 28/17 A2997 RMK A01 T02800166  RH  050%=      5-min Rain = 0
KSM2 201523Z 18011KT 28/17 A2997 RMK A01 T02810168  RH  050%=      5-min Rain = 0
KSM2 201524Z 19011KT 28/17 A2997 RMK A01 T02830169  RH  050%=      5-min Rain = 0
KSM2 201525Z 18013KT 29/17 A2997 RMK A01 T02850168  RH  049%=      5-min Rain = 0
KSM2 201526Z 18015KT 28/17 A2997 RMK A01 T02840167  RH  049%=      5-min Rain = 0
KSM2 201527Z 18014KT 28/17 A2997 RMK A01 T02830167  RH  049%=      5-min Rain = 0
KSM2 201528Z 19016KT 28/17 A2997 RMK A01 T02820166  RH  049%=      5-min Rain = 0
KSM2 201529Z 18013G18KT 28/17 A2997 RMK A01 T02820167  RH  050%=      5-min Rain = 0
KSM2 201530Z 19015KT 28/17 A2997 RMK A01 T02820166  RH  049%=      5-min Rain = 0
KSM2 201531Z 18014KT 28/17 A2997 RMK A01 T02820167  RH  050%=      5-min Rain = 0
KSM2 201532Z 19014KT 28/17 A2997 RMK A01 T02840166  RH  049%=      5-min Rain = 0
KSM2 201533Z 19014KT 28/17 A2997 RMK A01 T02840165  RH  048%=      5-min Rain = 0
KSM2 201534Z 17012KT 28/17 A2997 RMK A01 T02830166  RH  049%=      5-min Rain = 0
KSM2 201535Z 17012KT 28/17 A2997 RMK A01 T02840165  RH  048%=      5-min Rain = 0
KSM2 201536Z 18013G19KT 29/17 A2997 RMK A01 T02850167  RH  049%=      5-min Rain = 0
KSM2 201537Z 19015KT 29/17 A2997 RMK A01 T02850165  RH  048%=      5-min Rain = 0
KSM2 201538Z 19013KT 29/17 A2997 RMK A01 T02860168  RH  049%=      5-min Rain = 0
KSM2 201539Z 18012KT 29/17 A2997 RMK A01 T02880169  RH  049%=      5-min Rain = 0
KSM2 201540Z 17012G17KT 29/17 A2997 RMK A01 T02880169  RH  048%=      5-min Rain = 0
KSM2 201541Z 17013KT 29/17 A2997 RMK A01 T02880166  RH  048%=      5-min Rain = 0
KSM2 201542Z 17012KT 29/17 A2997 RMK A01 T02870167  RH  048%=      5-min Rain = 0
KSM2 201543Z 18014KT 29/17 A2997 RMK A01 T02870166  RH  048%=      5-min Rain = 0
KSM2 201544Z 18014KT 29/17 A2997 RMK A01 T02880166  RH  048%=      5-min Rain = 0
KSM2 201545Z 18011G17KT 29/17 A2997 RMK A01 T02880167  RH  048%=      5-min Rain = 0
KSM2 201546Z 18014KT 29/17 A2997 RMK A01 T02890166  RH  047%=      5-min Rain = 0
KSM2 201547Z 20012KT 29/17 A2997 RMK A01 T02890168  RH  048%=      5-min Rain = 0
KSM2 201548Z 20013KT 29/17 A2997 RMK A01 T02930166  RH  046%=      5-min Rain = 0
KSM2 201549Z 19012KT 29/17 A2997 RMK A01 T02940167  RH  046%=      5-min Rain = 0
KSM2 201550Z 20015KT 29/17 A2997 RMK A01 T02930167  RH  046%=      5-min Rain = 0
KSM2 201551Z 20013KT 29/16 A2997 RMK A01 T02920163  RH  046%=      5-min Rain = 0
KSM2 201552Z 19012G18KT 29/17 A2997 RMK A01 T02910166  RH  047%=      5-min Rain = 0
KSM2 201553Z 19013KT 29/17 A2997 RMK A01 T02920167  RH  047%=      5-min Rain = 0
KSM2 201554Z 19012G17KT 29/17 A2997 RMK A01 T02920167  RH  047%=      5-min Rain = 0
KSM2 201555Z 20009KT 29/17 A2997 RMK A01 T02920171  RH  048%=      5-min Rain = 0
KSM2 201556Z 18012KT 30/17 A2997 RMK A01 T02960169  RH  046%=      5-min Rain = 0
KSM2 201557Z 19013KT 30/17 A2997 RMK A01 T02970171  RH  047%=      5-min Rain = 0
KSM2 201558Z 19014KT 30/17 A2997 RMK A01 T02960166  RH  046%=      5-min Rain = 0
KSM2 201559Z 19014KT 30/17 A2997 RMK A01 T02950167  RH  046%=      5-min Rain = 0
KSM2 201600Z 18011KT 30/17 A2997 RMK A01 T02950166  RH  046%=      5-min Rain = 0
KSM2 201601Z 20014KT 30/17 A2997 RMK A01 T02950165  RH  046%=      5-min Rain = 0
KSM2 201602Z 20011KT 30/17 A2997 RMK A01 T02970165  RH  045%=      5-min Rain = 0
KSM2 201603Z 20012KT 30/17 A2997 RMK A01 T02980167  RH  045%=      5-min Rain = 0
KSM2 201604Z 20013KT 30/17 A2997 RMK A01 T02980165  RH  045%=      5-min Rain = 0
KSM2 201605Z 19014KT 30/17 A2997 RMK A01 T02980169  RH  046%=      5-min Rain = 0
KSM2 201606Z 18014KT 30/17 A2997 RMK A01 T02980166  RH  045%=      5-min Rain = 0
KSM2 201607Z 18013KT 30/17 A2997 RMK A01 T02960165  RH  045%=      5-min Rain = 0
KSM2 201608Z 18011KT 30/17 A2997 RMK A01 T02950165  RH  046%=      5-min Rain = 0
KSM2 201609Z 18009KT 30/17 A2997 RMK A01 T02950166  RH  046%=      5-min Rain = 0
KSM2 201610Z 17012KT 30/17 A2997 RMK A01 T02980166  RH  045%=      5-min Rain = 0
KSM2 201611Z 18012KT 30/17 A2997 RMK A01 T02990166  RH  045%=      5-min Rain = 0
KSM2 201612Z 19013KT 30/17 A2997 RMK A01 T02990167  RH  045%=      5-min Rain = 0
KSM2 201613Z 21016KT 30/17 A2997 RMK A01 T03010166  RH  044%=      5-min Rain = 0
KSM2 201614Z 21012KT 30/16 A2997 RMK A01 T03010164  RH  044%=      5-min Rain = 0
KSM2 201615Z 19011KT 30/17 A2997 RMK A01 T03000167  RH  045%=      5-min Rain = 0
KSM2 201616Z 18011KT 30/17 A2997 RMK A01 T02980167  RH  045%=      5-min Rain = 0
KSM2 201617Z 18011KT 30/17 A2997 RMK A01 T02990168  RH  045%=      5-min Rain = 0
KSM2 201618Z 17011KT 30/17 A2997 RMK A01 T03010168  RH  045%=      5-min Rain = 0
KSM2 201619Z 16012KT 30/17 A2997 RMK A01 T03020167  RH  044%=      5-min Rain = 0
KSM2 201620Z 18011KT 30/17 A2997 RMK A01 T03020167  RH  044%=      5-min Rain = 0
KSM2 201621Z 19013KT 30/17 A2997 RMK A01 T03030171  RH  045%=      5-min Rain = 0
KSM2 201622Z 18012KT 31/17 A2997 RMK A01 T03050168  RH  044%=      5-min Rain = 0
KSM2 201623Z 18012KT 31/17 A2997 RMK A01 T03050166  RH  043%=      5-min Rain = 0
KSM2 201624Z 19013KT 30/17 A2997 RMK A01 T03030166  RH  044%=      5-min Rain = 0
KSM2 201625Z 20013KT 30/17 A2997 RMK A01 T03030166  RH  044%=      5-min Rain = 0
KSM2 201626Z 20012KT 30/16 A2997 RMK A01 T03030164  RH  043%=      5-min Rain = 0
KSM2 201627Z 18014KT 30/17 A2997 RMK A01 T03030167  RH  044%=      5-min Rain = 0
KSM2 201628Z 18011KT 30/17 A2997 RMK A01 T03030167  RH  044%=      5-min Rain = 0
KSM2 201629Z 20014KT 30/17 A2997 RMK A01 T03030168  RH  044%=      5-min Rain = 0
KSM2 201630Z 21011KT 30/17 A2997 RMK A01 T03020166  RH  044%=      5-min Rain = 0
KSM2 201631Z 21010KT 30/17 A2997 RMK A01 T03030166  RH  044%=      5-min Rain = 0
KSM2 201632Z 19010G15KT 31/17 A2997 RMK A01 T03050169  RH  044%=      5-min Rain = 0
KSM2 201633Z 19014KT 31/17 A2997 RMK A01 T03080168  RH  043%=      5-min Rain = 0
KSM2 201634Z 18010KT 31/17 A2997 RMK A01 T03050167  RH  044%=      5-min Rain = 0
KSM2 201635Z 17012KT 31/17 A2997 RMK A01 T03050167  RH  043%=      5-min Rain = 0
KSM2 201636Z 17011KT 31/17 A2997 RMK A01 T03080166  RH  042%=      5-min Rain = 0
KSM2 201637Z 18009KT 31/17 A2997 RMK A01 T03090168  RH  043%=      5-min Rain = 0
KSM2 201638Z 19012KT 31/17 A2997 RMK A01 T03120168  RH  042%=      5-min Rain = 0
KSM2 201639Z 20011KT 31/17 A2997 RMK A01 T03120167  RH  042%=      5-min Rain = 0
KSM2 201640Z 20013KT 31/17 A2997 RMK A01 T03110165  RH  041%=      5-min Rain = 0
KSM2 201641Z 19015KT 31/17 A2997 RMK A01 T03100168  RH  042%=      5-min Rain = 0
KSM2 201642Z 18012KT 31/17 A2997 RMK A01 T03090168  RH  043%=      5-min Rain = 0
KSM2 201643Z 18009KT 31/17 A2997 RMK A01 T03080165  RH  042%=      5-min Rain = 0
KSM2 201644Z 20012KT 31/17 A2997 RMK A01 T03080166  RH  043%=      5-min Rain = 0
KSM2 201645Z 19012KT 31/17 A2997 RMK A01 T03080168  RH  043%=      5-min Rain = 0
KSM2 201646Z 19013KT 31/17 A2997 RMK A01 T03090165  RH  042%=      5-min Rain = 0
KSM2 201647Z 18011KT 31/17 A2997 RMK A01 T03070165  RH  042%=      5-min Rain = 0
KSM2 201648Z 18012KT 31/17 A2997 RMK A01 T03070166  RH  043%=      5-min Rain = 0
KSM2 201649Z 17010KT 31/17 A2997 RMK A01 T03080166  RH  043%=      5-min Rain = 0
KSM2 201650Z 17012KT 31/17 A2997 RMK A01 T03110165  RH  041%=      5-min Rain = 0
KSM2 201651Z 17009KT 31/17 A2997 RMK A01 T03120166  RH  042%=      5-min Rain = 0
KSM2 201652Z 17010KT 31/17 A2997 RMK A01 T03120166  RH  041%=      5-min Rain = 0
KSM2 201653Z 18012KT 31/17 A2997 RMK A01 T03130166  RH  041%=      5-min Rain = 0
KSM2 201654Z 20012KT 31/17 A2997 RMK A01 T03140168  RH  041%=      5-min Rain = 0
KSM2 201655Z 20013KT 32/17 A2997 RMK A01 T03150168  RH  041%=      5-min Rain = 0
KSM2 201656Z 19013KT 32/17 A2997 RMK A01 T03160166  RH  041%=      5-min Rain = 0
KSM2 201657Z 17010KT 31/17 A2997 RMK A01 T03130166  RH  041%=      5-min Rain = 0
KSM2 201658Z 17013KT 31/17 A2997 RMK A01 T03130165  RH  041%=      5-min Rain = 0
KSM2 201659Z 18014KT 32/17 A2997 RMK A01 T03150166  RH  041%=      5-min Rain = 0
KSM2 201700Z 19013KT 32/17 A2997 RMK A01 T03160167  RH  041%=      5-min Rain = 0
KSM2 201701Z 19016KT 32/17 A2997 RMK A01 T03160169  RH  041%=      5-min Rain = 0
KSM2 201702Z 19013KT 32/17 A2997 RMK A01 T03150167  RH  041%=      5-min Rain = 0
KSM2 201703Z 18008KT 32/17 A2997 RMK A01 T03150167  RH  041%=      5-min Rain = 0
KSM2 201704Z 20009KT 32/17 A2997 RMK A01 T03150169  RH  042%=      5-min Rain = 0
KSM2 201705Z 19010KT 32/17 A2997 RMK A01 T03160167  RH  041%=      5-min Rain = 0
KSM2 201706Z 20013KT 32/17 A2997 RMK A01 T03180169  RH  041%=      5-min Rain = 0
KSM2 201707Z 18013KT 32/17 A2997 RMK A01 T03190168  RH  040%=      5-min Rain = 0
KSM2 201708Z 18012KT 32/17 A2997 RMK A01 T03200165  RH  040%=      5-min Rain = 0
KSM2 201709Z 18010KT 32/17 A2997 RMK A01 T03210165  RH  039%=      5-min Rain = 0
KSM2 201710Z 19013KT 32/17 A2997 RMK A01 T03200165  RH  039%=      5-min Rain = 0
KSM2 201711Z 18012KT 32/16 A2997 RMK A01 T03190162  RH  039%=      5-min Rain = 0
KSM2 201712Z 17011KT 32/16 A2997 RMK A01 T03180164  RH  040%=      5-min Rain = 0
KSM2 201713Z 17010KT 32/17 A2997 RMK A01 T03190165  RH  039%=      5-min Rain = 0
KSM2 201714Z 17009KT 32/16 A2997 RMK A01 T03210164  RH  039%=      5-min Rain = 0
KSM2 201715Z 17012KT 32/16 A2996 RMK A01 T03190164  RH  039%=      5-min Rain = 0
KSM2 201716Z 18011KT 32/17 A2996 RMK A01 T03200165  RH  039%=      5-min Rain = 0
KSM2 201717Z 17009KT 32/17 A2996 RMK A01 T03220166  RH  039%=      5-min Rain = 0
KSM2 201718Z 19010KT 33/17 A2997 RMK A01 T03260168  RH  039%=      5-min Rain = 0
KSM2 201719Z 18010KT 33/17 A2996 RMK A01 T03270165  RH  038%=      5-min Rain = 0
KSM2 201720Z 20010KT 33/17 A2996 RMK A01 T03280169  RH  039%=      5-min Rain = 0
KSM2 201721Z 20010G15KT 33/17 A2996 RMK A01 T03280169  RH  039%=      5-min Rain = 0
KSM2 201722Z 19011KT 33/17 A2996 RMK A01 T03280169  RH  039%=      5-min Rain = 0
KSM2 201723Z 16011KT 33/17 A2996 RMK A01 T03270168  RH  039%=      5-min Rain = 0
KSM2 201724Z 17011KT 33/17 A2996 RMK A01 T03270165  RH  038%=      5-min Rain = 0
KSM2 201725Z 17012G17KT 33/16 A2996 RMK A01 T03270164  RH  038%=      5-min Rain = 0
KSM2 201726Z 18011KT 33/17 A2996 RMK A01 T03290165  RH  038%=      5-min Rain = 0
KSM2 201727Z 20012KT 33/16 A2996 RMK A01 T03300164  RH  037%=      5-min Rain = 0
KSM2 201728Z 21012KT 33/16 A2996 RMK A01 T03280164  RH  037%=      5-min Rain = 0
KSM2 201729Z 21012KT 33/16 A2996 RMK A01 T03260163  RH  038%=      5-min Rain = 0
KSM2 201730Z 18010KT 33/16 A2996 RMK A01 T03270162  RH  037%=      5-min Rain = 0
KSM2 201731Z 19007KT 33/16 A2996 RMK A01 T03250162  RH  037%=      5-min Rain = 0
KSM2 201732Z 19012KT 33/17 A2996 RMK A01 T03260167  RH  039%=      5-min Rain = 0
KSM2 201733Z 19011KT 33/17 A2996 RMK A01 T03290165  RH  037%=      5-min Rain = 0
KSM2 201734Z 21011KT 33/17 A2996 RMK A01 T03320166  RH  037%=      5-min Rain = 0
KSM2 201735Z 21011KT 33/17 A2996 RMK A01 T03300167  RH  038%=      5-min Rain = 0
KSM2 201736Z 19010KT 33/17 A2996 RMK A01 T03300165  RH  037%=      5-min Rain = 0
KSM2 201737Z 18007KT 33/16 A2996 RMK A01 T03290162  RH  037%=      5-min Rain = 0
KSM2 201738Z 19009KT 33/17 A2996 RMK A01 T03300168  RH  038%=      5-min Rain = 0
KSM2 201739Z 18010KT 33/17 A2996 RMK A01 T03310166  RH  037%=      5-min Rain = 0
KSM2 201740Z 17013KT 33/17 A2996 RMK A01 T03320165  RH  037%=      5-min Rain = 0
KSM2 201741Z 19012KT 33/16 A2996 RMK A01 T03330162  RH  036%=      5-min Rain = 0
KSM2 201742Z 18011KT 33/17 A2996 RMK A01 T03340165  RH  036%=      5-min Rain = 0
KSM2 201743Z 18011KT 34/16 A2996 RMK A01 T03350162  RH  036%=      5-min Rain = 0
KSM2 201744Z 17008KT 33/16 A2996 RMK A01 T03340164  RH  036%=      5-min Rain = 0
KSM2 201745Z 17009KT 33/16 A2996 RMK A01 T03340163  RH  036%=      5-min Rain = 0
KSM2 201746Z 20012KT 33/16 A2996 RMK A01 T03340163  RH  036%=      5-min Rain = 0
KSM2 201747Z 20011KT 33/16 A2996 RMK A01 T03340162  RH  036%=      5-min Rain = 0
KSM2 201748Z 19010KT 33/16 A2996 RMK A01 T03330164  RH  037%=      5-min Rain = 0
KSM2 201749Z 20010G16KT 34/17 A2996 RMK A01 T03350167  RH  037%=      5-min Rain = 0
KSM2 201750Z 20012KT 34/17 A2996 RMK A01 T03350166  RH  036%=      5-min Rain = 0
KSM2 201751Z 19010KT 33/17 A2996 RMK A01 T03340165  RH  037%=      5-min Rain = 0
KSM2 201752Z 18010KT 33/17 A2996 RMK A01 T03340166  RH  037%=      5-min Rain = 0
KSM2 201753Z 17011KT 34/17 A2996 RMK A01 T03370165  RH  036%=      5-min Rain = 0
KSM2 201754Z 16010KT 34/16 A2996 RMK A01 T03370163  RH  035%=      5-min Rain = 0
KSM2 201755Z 16012KT 34/16 A2996 RMK A01 T03360162  RH  035%=      5-min Rain = 0
KSM2 201756Z 20011KT 34/17 A2996 RMK A01 T03390167  RH  036%=      5-min Rain = 0
KSM2 201757Z 20015G21KT 34/17 A2996 RMK A01 T03390167  RH  036%=      5-min Rain = 0
KSM2 201758Z 19013KT 34/17 A2996 RMK A01 T03370165  RH  036%=      5-min Rain = 0
KSM2 201759Z 18011KT 34/16 A2996 RMK A01 T03350163  RH  036%=      5-min Rain = 0
KSM2 201800Z 20010KT 34/17 A2996 RMK A01 T03350166  RH  036%=      5-min Rain = 0
KSM2 201801Z 20012KT 34/17 A2996 RMK A01 T03370167  RH  036%=      5-min Rain = 0
KSM2 201802Z 19012KT 34/17 A2996 RMK A01 T03390169  RH  036%=      5-min Rain = 0
KSM2 201803Z 18011KT 34/16 A2996 RMK A01 T03380164  RH  035%=      5-min Rain = 0
KSM2 201804Z 17009KT 34/16 A2996 RMK A01 T03350160  RH  035%=      5-min Rain = 0
KSM2 201805Z 16010G16KT 33/16 A2996 RMK A01 T03340162  RH  036%=      5-min Rain = 0
KSM2 201806Z 17009KT 34/16 A2996 RMK A01 T03360161  RH  035%=      5-min Rain = 0
KSM2 201807Z 19006KT 34/16 A2996 RMK A01 T03360162  RH  035%=      5-min Rain = 0
KSM2 201808Z 19009KT 34/17 A2996 RMK A01 T03370166  RH  036%=      5-min Rain = 0
KSM2 201809Z 20012KT 34/17 A2996 RMK A01 T03410165  RH  035%=      5-min Rain = 0
KSM2 201810Z 21010KT 34/16 A2996 RMK A01 T03390162  RH  035%=      5-min Rain = 0
KSM2 201811Z 20010KT 34/16 A2996 RMK A01 T03360162  RH  035%=      5-min Rain = 0
KSM2 201812Z 18011KT 34/16 A2996 RMK A01 T03360161  RH  035%=      5-min Rain = 0
KSM2 201813Z 17011G16KT 34/16 A2996 RMK A01 T03380161  RH  035%=      5-min Rain = 0
KSM2 201814Z 18011KT 34/16 A2996 RMK A01 T03390164  RH  035%=      5-min Rain = 0
KSM2 201815Z 18010KT 34/16 A2996 RMK A01 T03390163  RH  035%=      5-min Rain = 0
KSM2 201816Z 19009KT 34/16 A2996 RMK A01 T03380162  RH  035%=      5-min Rain = 0
KSM2 201817Z 16010KT 34/16 A2996 RMK A01 T03380161  RH  035%=      5-min Rain = 0
KSM2 201818Z 16011KT 34/16 A2995 RMK A01 T03390162  RH  035%=      5-min Rain = 0
KSM2 201819Z 14010KT 34/16 A2995 RMK A01 T03410161  RH  034%=      5-min Rain = 0
KSM2 201820Z 16009G15KT 34/17 A2995 RMK A01 T03440166  RH  035%=      5-min Rain = 0
KSM2 201821Z 17012KT 35/16 A2996 RMK A01 T03470164  RH  034%=      5-min Rain = 0
KSM2 201822Z 18010KT 35/16 A2996 RMK A01 T03450162  RH  034%=      5-min Rain = 0
KSM2 201823Z 18008KT 34/16 A2995 RMK A01 T03420163  RH  034%=      5-min Rain = 0
KSM2 201824Z 18007KT 34/16 A2995 RMK A01 T03410164  RH  035%=      5-min Rain = 0
KSM2 201825Z 19010G17KT 34/17 A2995 RMK A01 T03440169  RH  035%=      5-min Rain = 0
KSM2 201826Z 19014KT 35/16 A2995 RMK A01 T03460162  RH  033%=      5-min Rain = 0
KSM2 201827Z 20010KT 34/16 A2995 RMK A01 T03410156  RH  033%=      5-min Rain = 0
KSM2 201828Z 19008KT 34/16 A2995 RMK A01 T03400163  RH  035%=      5-min Rain = 0
KSM2 201829Z 17009KT 34/16 A2995 RMK A01 T03420163  RH  034%=      5-min Rain = 0
KSM2 201830Z 17013KT 34/16 A2995 RMK A01 T03430162  RH  034%=      5-min Rain = 0
KSM2 201831Z 16010KT 34/16 A2995 RMK A01 T03440159  RH  033%=      5-min Rain = 0
KSM2 201832Z 17009KT 34/16 A2995 RMK A01 T03430158  RH  033%=      5-min Rain = 0
KSM2 201833Z 19010KT 34/16 A2995 RMK A01 T03410161  RH  034%=      5-min Rain = 0
KSM2 201834Z 19011KT 34/16 A2995 RMK A01 T03430162  RH  034%=      5-min Rain = 0
KSM2 201835Z 17008KT 34/16 A2995 RMK A01 T03430161  RH  034%=      5-min Rain = 0
KSM2 201836Z 15011KT 34/16 A2995 RMK A01 T03440162  RH  034%=      5-min Rain = 0
KSM2 201837Z 16009KT 35/16 A2995 RMK A01 T03460158  RH  033%=      5-min Rain = 0
KSM2 201838Z 18010KT 35/16 A2995 RMK A01 T03480162  RH  033%=      5-min Rain = 0
KSM2 201839Z 21011KT 35/16 A2995 RMK A01 T03490163  RH  033%=      5-min Rain = 0
KSM2 201840Z 21010KT 35/16 A2995 RMK A01 T03470163  RH  033%=      5-min Rain = 0
KSM2 201841Z 19011KT 35/16 A2995 RMK A01 T03470164  RH  034%=      5-min Rain = 0
KSM2 201842Z 17011KT 35/16 A2995 RMK A01 T03470159  RH  033%=      5-min Rain = 0
KSM2 201843Z 17007KT 35/16 A2995 RMK A01 T03450162  RH  034%=      5-min Rain = 0
KSM2 201844Z 19007KT 35/16 A2995 RMK A01 T03460161  RH  033%=      5-min Rain = 0
KSM2 201845Z 17007KT 35/16 A2995 RMK A01 T03460158  RH  033%=      5-min Rain = 0
KSM2 201846Z 16006KT 35/16 A2995 RMK A01 T03450156  RH  032%=      5-min Rain = 0
KSM2 201847Z 19010KT 35/16 A2995 RMK A01 T03470163  RH  034%=      5-min Rain = 0
KSM2 201848Z 19013KT 35/16 A2995 RMK A01 T03500164  RH  033%=      5-min Rain = 0
KSM2 201849Z 17011KT 35/16 A2995 RMK A01 T03510161  RH  032%=      5-min Rain = 0
KSM2 201850Z 19011KT 35/16 A2995 RMK A01 T03530159  RH  032%=      5-min Rain = 0
KSM2 201851Z 18009KT 35/16 A2994 RMK A01 T03480159  RH  032%=      5-min Rain = 0
KSM2 201852Z 18010KT 35/16 A2995 RMK A01 T03490163  RH  033%=      5-min Rain = 0
KSM2 201853Z 18010KT 35/16 A2995 RMK A01 T03530161  RH  032%=      5-min Rain = 0
KSM2 201854Z 17011KT 35/16 A2995 RMK A01 T03540158  RH  031%=      5-min Rain = 0
KSM2 201855Z 20010KT 35/16 A2995 RMK A01 T03520158  RH  032%=      5-min Rain = 0
KSM2 201856Z 18007KT 35/16 A2994 RMK A01 T03500156  RH  031%=      5-min Rain = 0
KSM2 201857Z 15009KT 35/16 A2994 RMK A01 T03480158  RH  032%=      5-min Rain = 0
KSM2 201858Z 18010KT 35/16 A2994 RMK A01 T03520163  RH  032%=      5-min Rain = 0
KSM2 201859Z 18009KT 36/16 A2995 RMK A01 T03560164  RH  032%=      5-min Rain = 0
KSM2 201900Z 18010KT 36/16 A2994 RMK A01 T03560162  RH  032%=      5-min Rain = 0
KSM2 201901Z 20010KT 35/16 A2994 RMK A01 T03540160  RH  032%=      5-min Rain = 0
KSM2 201902Z 17008KT 35/16 A2994 RMK A01 T03530158  RH  031%=      5-min Rain = 0
KSM2 201903Z 19010KT 35/16 A2994 RMK A01 T03520159  RH  032%=      5-min Rain = 0
KSM2 201904Z 17010KT 35/16 A2994 RMK A01 T03530164  RH  032%=      5-min Rain = 0
KSM2 201905Z 16012KT 36/16 A2994 RMK A01 T03570157  RH  031%=      5-min Rain = 0
KSM2 201906Z 19011KT 36/16 A2994 RMK A01 T03580158  RH  030%=      5-min Rain = 0
KSM2 201907Z 20010KT 36/16 A2994 RMK A01 T03570158  RH  031%=      5-min Rain = 0
KSM2 201908Z 20011KT 36/16 A2994 RMK A01 T03550160  RH  031%=      5-min Rain = 0
KSM2 201909Z 18007KT 36/16 A2994 RMK A01 T03550156  RH  031%=      5-min Rain = 0
KSM2 201910Z 17007KT 35/16 A2994 RMK A01 T03540159  RH  031%=      5-min Rain = 0
KSM2 201911Z 18012KT 36/16 A2994 RMK A01 T03560158  RH  031%=      5-min Rain = 0
KSM2 201912Z 17010KT 36/16 A2994 RMK A01 T03560155  RH  030%=      5-min Rain = 0
KSM2 201913Z 16007KT 36/16 A2994 RMK A01 T03550157  RH  031%=      5-min Rain = 0
KSM2 201914Z 18010KT 36/16 A2994 RMK A01 T03580157  RH  030%=      5-min Rain = 0
KSM2 201915Z 17012KT 36/16 A2994 RMK A01 T03570157  RH  031%=      5-min Rain = 0
KSM2 201916Z 17010KT 36/16 A2994 RMK A01 T03570158  RH  031%=      5-min Rain = 0
KSM2 201917Z 19012KT 36/16 A2994 RMK A01 T03580159  RH  031%=      5-min Rain = 0
KSM2 201918Z 20012KT 36/16 A2994 RMK A01 T03570161  RH  031%=      5-min Rain = 0
KSM2 201919Z 17009KT 36/16 A2994 RMK A01 T03590162  RH  031%=      5-min Rain = 0
KSM2 201920Z 16008KT 36/16 A2994 RMK A01 T03590161  RH  031%=      5-min Rain = 0
KSM2 201921Z 19009G14KT 36/16 A2994 RMK A01 T03630162  RH  031%=      5-min Rain = 0
KSM2 201922Z 19012KT 36/16 A2994 RMK A01 T03640161  RH  030%=      5-min Rain = 0
KSM2 201923Z 16012G18KT 36/16 A2993 RMK A01 T03620157  RH  030%=      5-min Rain = 0
KSM2 201924Z 19014KT 36/16 A2993 RMK A01 T03620160  RH  030%=      5-min Rain = 0
KSM2 201925Z 19014KT 36/16 A2993 RMK A01 T03630159  RH  030%=      5-min Rain = 0
KSM2 201926Z 19011KT 36/16 A2993 RMK A01 T03610155  RH  029%=      5-min Rain = 0
KSM2 201927Z 16009KT 36/15 A2993 RMK A01 T03590153  RH  029%=      5-min Rain = 0
KSM2 201928Z 17009KT 36/15 A2993 RMK A01 T03600152  RH  029%=      5-min Rain = 0
KSM2 201929Z 17008KT 36/15 A2993 RMK A01 T03600154  RH  029%=      5-min Rain = 0
KSM2 201930Z 19012KT 36/16 A2993 RMK A01 T03600156  RH  030%=      5-min Rain = 0
KSM2 201931Z 19013KT 36/16 A2993 RMK A01 T03610159  RH  030%=      5-min Rain = 0
KSM2 201932Z 19010KT 36/16 A2993 RMK A01 T03640155  RH  029%=      5-min Rain = 0
KSM2 201933Z 18010KT 36/15 A2993 RMK A01 T03610150  RH  029%=      5-min Rain = 0
KSM2 201934Z 20009KT 36/16 A2993 RMK A01 T03580156  RH  030%=      5-min Rain = 0
KSM2 201935Z 21009KT 36/16 A2993 RMK A01 T03600156  RH  030%=      5-min Rain = 0
KSM2 201936Z 20009KT 36/15 A2993 RMK A01 T03600154  RH  029%=      5-min Rain = 0
KSM2 201937Z 18011KT 36/16 A2993 RMK A01 T03600157  RH  030%=      5-min Rain = 0
KSM2 201938Z 18010KT 36/15 A2993 RMK A01 T03620154  RH  029%=      5-min Rain = 0
KSM2 201939Z 19013KT 36/16 A2993 RMK A01 T03630157  RH  030%=      5-min Rain = 0
KSM2 201940Z 20011KT 36/16 A2993 RMK A01 T03640157  RH  029%=      5-min Rain = 0
KSM2 201941Z 18008KT 36/15 A2993 RMK A01 T03620150  RH  028%=      5-min Rain = 0
KSM2 201942Z 19007KT 36/15 A2993 RMK A01 T03570152  RH  029%=      5-min Rain = 0
KSM2 201943Z 20007KT 36/15 A2993 RMK A01 T03590152  RH  029%=      5-min Rain = 0
KSM2 201944Z 19008KT 36/15 A2993 RMK A01 T03590150  RH  029%=      5-min Rain = 0
KSM2 201945Z 19011KT 36/15 A2993 RMK A01 T03590152  RH  029%=      5-min Rain = 0
KSM2 201946Z 17010KT 36/15 A2993 RMK A01 T03600150  RH  029%=      5-min Rain = 0
KSM2 201947Z 17008KT 36/15 A2993 RMK A01 T03620153  RH  029%=      5-min Rain = 0
KSM2 201948Z 17010KT 37/16 A2993 RMK A01 T03650155  RH  029%=      5-min Rain = 0
KSM2 201949Z 19012KT 37/16 A2993 RMK A01 T03680156  RH  028%=      5-min Rain = 0
KSM2 201950Z 21012KT 37/16 A2993 RMK A01 T03680159  RH  029%=      5-min Rain = 0
KSM2 201951Z 17009KT 37/15 A2993 RMK A01 T03670153  RH  028%=      5-min Rain = 0
KSM2 201952Z 17010KT 37/16 A2993 RMK A01 T03680155  RH  028%=      5-min Rain = 0
KSM2 201953Z 17010KT 37/15 A2993 RMK A01 T03700151  RH  027%=      5-min Rain = 0
KSM2 201954Z 15005KT 37/15 A2993 RMK A01 T03670149  RH  027%=      5-min Rain = 0
KSM2 201955Z 11004KT 37/14 A2992 RMK A01 T03650142  RH  027%=      5-min Rain = 0
KSM2 201956Z 14005KT 37/15 A2993 RMK A01 T03650148  RH  028%=      5-min Rain = 0
KSM2 201957Z 16010KT 37/15 A2993 RMK A01 T03690151  RH  027%=      5-min Rain = 0
KSM2 201958Z 15010KT 37/15 A2993 RMK A01 T03700148  RH  027%=      5-min Rain = 0
KSM2 201959Z 14009KT 37/15 A2992 RMK A01 T03680146  RH  027%=      5-min Rain = 0
KSM2 202000Z 14008KT 37/15 A2992 RMK A01 T03690147  RH  027%=      5-min Rain = 0
KSM2 202001Z 14010KT 37/14 A2992 RMK A01 T03710144  RH  026%=      5-min Rain = 0
KSM2 202002Z 13009KT 37/14 A2992 RMK A01 T03690143  RH  026%=      5-min Rain = 0
KSM2 202003Z 12007KT 37/15 A2992 RMK A01 T03680145  RH  026%=      5-min Rain = 0
KSM2 202004Z 13007KT 37/15 A2992 RMK A01 T03710147  RH  026%=      5-min Rain = 0
KSM2 202005Z 13010KT 37/15 A2992 RMK A01 T03730148  RH  026%=      5-min Rain = 0
KSM2 202006Z 16009KT 37/15 A2992 RMK A01 T03740152  RH  027%=      5-min Rain = 0
KSM2 202007Z 17010G15KT 37/15 A2992 RMK A01 T03740152  RH  027%=      5-min Rain = 0
KSM2 202008Z 19011KT 37/16 A2992 RMK A01 T03720155  RH  028%=      5-min Rain = 0
KSM2 202009Z 20009KT 37/15 A2992 RMK A01 T03690152  RH  028%=      5-min Rain = 0
KSM2 202010Z 21010KT 37/15 A2992 RMK A01 T03660154  RH  028%=      5-min Rain = 0
KSM2 202011Z 20007KT 37/15 A2992 RMK A01 T03670152  RH  028%=      5-min Rain = 0
KSM2 202012Z 19007KT 37/15 A2992 RMK A01 T03660146  RH  027%=      5-min Rain = 0
KSM2 202013Z 21010G15KT 37/15 A2992 RMK A01 T03660154  RH  028%=      5-min Rain = 0
KSM2 202014Z 18014KT 37/16 A2992 RMK A01 T03720155  RH  028%=      5-min Rain = 0
KSM2 202015Z 20012KT 37/15 A2992 RMK A01 T03710150  RH  027%=      5-min Rain = 0
KSM2 202016Z 19010KT 37/15 A2992 RMK A01 T03700151  RH  027%=      5-min Rain = 0
KSM2 202017Z 19011KT 37/15 A2992 RMK A01 T03690147  RH  027%=      5-min Rain = 0
KSM2 202018Z 18008KT 37/15 A2992 RMK A01 T03680146  RH  027%=      5-min Rain = 0
KSM2 202019Z 18008KT 37/15 A2992 RMK A01 T03670147  RH  027%=      5-min Rain = 0
KSM2 202020Z 18007KT 37/15 A2992 RMK A01 T03670149  RH  027%=      5-min Rain = 0
KSM2 202021Z 21010KT 37/15 A2991 RMK A01 T03700151  RH  027%=      5-min Rain = 0
KSM2 202022Z 17009KT 37/15 A2991 RMK A01 T03690148  RH  027%=      5-min Rain = 0
KSM2 202023Z 20012KT 37/15 A2991 RMK A01 T03690146  RH  027%=      5-min Rain = 0
KSM2 202024Z 20014KT 37/15 A2991 RMK A01 T03690145  RH  026%=      5-min Rain = 0
KSM2 202025Z 20012KT 37/14 A2992 RMK A01 T03690142  RH  026%=      5-min Rain = 0
KSM2 202026Z 21008KT 37/14 A2991 RMK A01 T03690140  RH  026%=      5-min Rain = 0
KSM2 202027Z 21008KT 37/14 A2991 RMK A01 T03690141  RH  026%=      5-min Rain = 0
KSM2 202028Z 19005KT 37/15 A2991 RMK A01 T03680145  RH  027%=      5-min Rain = 0
KSM2 202029Z 18004KT 37/14 A2991 RMK A01 T03670142  RH  026%=      5-min Rain = 0
KSM2 202030Z 19009KT 37/15 A2991 RMK A01 T03690151  RH  027%=      5-min Rain = 0
KSM2 202031Z 19009KT 37/15 A2991 RMK A01 T03710150  RH  027%=      5-min Rain = 0
KSM2 202032Z 18009KT 37/15 A2991 RMK A01 T03740154  RH  027%=      5-min Rain = 0
KSM2 202033Z 18009KT 38/15 A2991 RMK A01 T03750154  RH  027%=      5-min Rain = 0
KSM2 202034Z 14010G15KT 38/15 A2991 RMK A01 T03770150  RH  026%=      5-min Rain = 0
KSM2 202035Z 14012KT 38/15 A2991 RMK A01 T03780147  RH  025%=      5-min Rain = 0
KSM2 202036Z 13010KT 38/15 A2991 RMK A01 T03780147  RH  026%=      5-min Rain = 0
KSM2 202037Z 12011KT 38/15 A2991 RMK A01 T03790147  RH  025%=      5-min Rain = 0
KSM2 202038Z 14008KT 38/15 A2991 RMK A01 T03800145  RH  025%=      5-min Rain = 0
KSM2 202039Z 14006KT 38/15 A2991 RMK A01 T03780146  RH  025%=      5-min Rain = 0
KSM2 202040Z 18009KT 38/15 A2991 RMK A01 T03780148  RH  026%=      5-min Rain = 0
KSM2 202041Z 18012KT 38/15 A2991 RMK A01 T03770147  RH  026%=      5-min Rain = 0
KSM2 202042Z 18012KT 38/14 A2991 RMK A01 T03760143  RH  025%=      5-min Rain = 0
KSM2 202043Z 17012KT 37/15 A2991 RMK A01 T03740145  RH  026%=      5-min Rain = 0
KSM2 202044Z 15011KT 38/14 A2991 RMK A01 T03750142  RH  025%=      5-min Rain = 0
KSM2 202045Z 18009KT 38/14 A2991 RMK A01 T03780144  RH  025%=      5-min Rain = 0
KSM2 202046Z 17011KT 38/14 A2991 RMK A01 T03780140  RH  024%=      5-min Rain = 0
KSM2 202047Z 15009KT 38/14 A2991 RMK A01 T03760141  RH  025%=      5-min Rain = 0
KSM2 202048Z 15010KT 38/14 A2991 RMK A01 T03780139  RH  024%=      5-min Rain = 0
KSM2 202049Z 17006KT 38/14 A2991 RMK A01 T03790142  RH  025%=      5-min Rain = 0
KSM2 202050Z 16005KT 38/14 A2991 RMK A01 T03780140  RH  024%=      5-min Rain = 0
KSM2 202051Z 17008KT 38/14 A2991 RMK A01 T03790140  RH  024%=      5-min Rain = 0
KSM2 202052Z 18009KT 38/14 A2991 RMK A01 T03790139  RH  024%=      5-min Rain = 0
KSM2 202053Z 18008KT 38/14 A2991 RMK A01 T03770136  RH  024%=      5-min Rain = 0
KSM2 202054Z 17007KT 38/14 A2991 RMK A01 T03760136  RH  024%=      5-min Rain = 0
KSM2 202055Z 16009KT 38/13 A2991 RMK A01 T03770134  RH  024%=      5-min Rain = 0
KSM2 202056Z 17010KT 38/13 A2991 RMK A01 T03760133  RH  024%=      5-min Rain = 0
KSM2 202057Z 21011KT 38/14 A2991 RMK A01 T03770137  RH  024%=      5-min Rain = 0
KSM2 202058Z 19012KT 38/14 A2991 RMK A01 T03750136  RH  024%=      5-min Rain = 0
KSM2 202059Z 17008KT 37/14 A2991 RMK A01 T03730136  RH  024%=      5-min Rain = 0
KSM2 202100Z 19008G14KT 37/14 A2991 RMK A01 T03720140  RH  025%=      5-min Rain = 0
KSM2 202101Z 19014KT 37/14 A2991 RMK A01 T03740144  RH  025%=      5-min Rain = 0
KSM2 202102Z 19010KT 38/14 A2991 RMK A01 T03770144  RH  025%=      5-min Rain = 0
KSM2 202103Z 17011KT 38/14 A2991 RMK A01 T03770139  RH  024%=      5-min Rain = 0
KSM2 202104Z 18011KT 38/14 A2991 RMK A01 T03770142  RH  025%=      5-min Rain = 0
KSM2 202105Z 19011KT 38/14 A2991 RMK A01 T03790139  RH  024%=      5-min Rain = 0
KSM2 202106Z 19009KT 38/14 A2991 RMK A01 T03780142  RH  025%=      5-min Rain = 0
KSM2 202107Z 16007KT 38/14 A2991 RMK A01 T03770140  RH  024%=      5-min Rain = 0
KSM2 202108Z 15008KT 38/13 A2991 RMK A01 T03780132  RH  023%=      5-min Rain = 0
KSM2 202109Z 14010KT 38/13 A299 RMK A01 T03790132  RH  023%=      5-min Rain = 0
KSM2 202110Z 15011KT 38/13 A299 RMK A01 T03800134  RH  023%=      5-min Rain = 0
KSM2 202111Z 19010KT 38/14 A299 RMK A01 T03810136  RH  023%=      5-min Rain = 0
KSM2 202112Z 18005KT 38/14 A299 RMK A01 T03780137  RH  024%=      5-min Rain = 0
KSM2 202113Z 18010KT 38/13 A299 RMK A01 T03770134  RH  024%=      5-min Rain = 0
KSM2 202114Z 18008KT 38/14 A299 RMK A01 T03760136  RH  024%=      5-min Rain = 0
KSM2 202115Z 17004KT 38/14 A299 RMK A01 T03760135  RH  024%=      5-min Rain = 0
KSM2 202116Z 14006KT 38/14 A299 RMK A01 T03760138  RH  024%=      5-min Rain = 0
KSM2 202117Z 16009G14KT 38/14 A299 RMK A01 T03780138  RH  024%=      5-min Rain = 0
KSM2 202118Z 19012KT 38/15 A299 RMK A01 T03790145  RH  025%=      5-min Rain = 0
KSM2 202119Z 16011KT 38/15 A299 RMK A01 T03790148  RH  026%=      5-min Rain = 0
KSM2 202120Z 13012KT 38/14 A299 RMK A01 T03790144  RH  025%=      5-min Rain = 0
KSM2 202121Z 14009KT 38/15 A299 RMK A01 T03790146  RH  025%=      5-min Rain = 0
KSM2 202122Z 15008KT 38/15 A299 RMK A01 T03780146  RH  025%=      5-min Rain = 0
KSM2 202123Z 15012KT 38/15 A299 RMK A01 T03770148  RH  026%=      5-min Rain = 0
KSM2 202124Z 12009KT 38/15 A299 RMK A01 T03750146  RH  026%=      5-min Rain = 0
KSM2 202125Z 17012G18KT 38/15 A299 RMK A01 T03780147  RH  026%=      5-min Rain = 0
KSM2 202126Z 19015KT 38/13 A299 RMK A01 T03800134  RH  023%=      5-min Rain = 0
KSM2 202127Z 20013KT 38/13 A299 RMK A01 T03780131  RH  023%=      5-min Rain = 0
KSM2 202128Z 20010KT 38/13 A299 RMK A01 T03750129  RH  023%=      5-min Rain = 0
KSM2 202129Z 18012KT 38/14 A299 RMK A01 T03750139  RH  025%=      5-min Rain = 0
KSM2 202130Z 18009KT 38/15 A299 RMK A01 T03760145  RH  025%=      5-min Rain = 0
KSM2 202131Z 18011KT 38/14 A299 RMK A01 T03760143  RH  025%=      5-min Rain = 0
KSM2 202132Z 17009KT 38/14 A299 RMK A01 T03760144  RH  025%=      5-min Rain = 0
KSM2 202133Z 16008KT 38/14 A2989 RMK A01 T03760144  RH  025%=      5-min Rain = 0
KSM2 202134Z 16010G15KT 38/15 A2989 RMK A01 T03770146  RH  025%=      5-min Rain = 0
KSM2 202135Z 14013KT 38/15 A2989 RMK A01 T03780145  RH  025%=      5-min Rain = 0
KSM2 202136Z 14010KT 38/15 A2989 RMK A01 T03800147  RH  025%=      5-min Rain = 0
KSM2 202137Z 15009KT 38/15 A2989 RMK A01 T03820150  RH  025%=      5-min Rain = 0
KSM2 202138Z 14013KT 39/15 A2989 RMK A01 T03850146  RH  024%=      5-min Rain = 0
KSM2 202139Z 14013KT 38/14 A2989 RMK A01 T03820142  RH  024%=      5-min Rain = 0
KSM2 202140Z 16014KT 38/14 A2989 RMK A01 T03790143  RH  025%=      5-min Rain = 0
KSM2 202141Z 16011KT 38/14 A2989 RMK A01 T03780143  RH  025%=      5-min Rain = 0
KSM2 202142Z 17009KT 38/14 A2989 RMK A01 T03770144  RH  025%=      5-min Rain = 0
KSM2 202143Z 19009KT 38/14 A2989 RMK A01 T03780144  RH  025%=      5-min Rain = 0
KSM2 202144Z 19011KT 38/14 A2989 RMK A01 T03800140  RH  024%=      5-min Rain = 0
KSM2 202145Z 17012KT 38/14 A2989 RMK A01 T03790144  RH  025%=      5-min Rain = 0
KSM2 202146Z 18012KT 38/14 A2989 RMK A01 T03770144  RH  025%=      5-min Rain = 0
KSM2 202147Z 18009KT 38/15 A2989 RMK A01 T03760146  RH  026%=      5-min Rain = 0
KSM2 202148Z 16010KT 38/15 A2989 RMK A01 T03770148  RH  026%=      5-min Rain = 0
KSM2 202149Z 14011KT 38/15 A2989 RMK A01 T03800145  RH  025%=      5-min Rain = 0
KSM2 202150Z 14013KT 38/14 A2989 RMK A01 T03810142  RH  024%=      5-min Rain = 0
KSM2 202151Z 14009KT 38/14 A2989 RMK A01 T03800140  RH  024%=      5-min Rain = 0
KSM2 202152Z 15007KT 38/15 A2989 RMK A01 T03780146  RH  025%=      5-min Rain = 0
KSM2 202153Z 14007KT 38/14 A2989 RMK A01 T03790142  RH  025%=      5-min Rain = 0
KSM2 202154Z 17006KT 38/14 A2989 RMK A01 T03790141  RH  024%=      5-min Rain = 0
KSM2 202155Z 18007KT 38/14 A2988 RMK A01 T03760142  RH  025%=      5-min Rain = 0
KSM2 202156Z 17006KT 37/14 A2988 RMK A01 T03740144  RH  025%=      5-min Rain = 0
KSM2 202157Z 13009KT 38/14 A2988 RMK A01 T03760142  RH  025%=      5-min Rain = 0
KSM2 202158Z 18013KT 38/14 A2988 RMK A01 T03800141  RH  024%=      5-min Rain = 0
KSM2 202159Z 17009KT 38/15 A2988 RMK A01 T03800145  RH  025%=      5-min Rain = 0
KSM2 202200Z 15013KT 38/14 A2988 RMK A01 T03830142  RH  024%=      5-min Rain = 0
KSM2 202201Z 17011KT 38/14 A2988 RMK A01 T03840143  RH  024%=      5-min Rain = 0
KSM2 202202Z 17012G19KT 38/14 A2988 RMK A01 T03820142  RH  024%=      5-min Rain = 0
KSM2 202203Z 17015KT 38/14 A2989 RMK A01 T03800139  RH  024%=      5-min Rain = 0
KSM2 202204Z 16011KT 38/14 A2989 RMK A01 T03770140  RH  025%=      5-min Rain = 0
KSM2 202205Z 16012KT 38/14 A2988 RMK A01 T03760139  RH  024%=      5-min Rain = 0
KSM2 202206Z 18014KT 38/14 A2989 RMK A01 T03790143  RH  025%=      5-min Rain = 0
KSM2 202207Z 16012KT 38/14 A2989 RMK A01 T03790139  RH  024%=      5-min Rain = 0
KSM2 202208Z 16008KT 38/14 A2988 RMK A01 T03770137  RH  024%=      5-min Rain = 0
KSM2 202209Z 16008KT 38/15 A2988 RMK A01 T03780145  RH  025%=      5-min Rain = 0
KSM2 202210Z 16008KT 38/14 A2988 RMK A01 T03810142  RH  024%=      5-min Rain = 0
KSM2 202211Z 17009KT 38/14 A2988 RMK A01 T03820143  RH  024%=      5-min Rain = 0
KSM2 202212Z 16009G14KT 38/14 A2988 RMK A01 T03810137  RH  023%=      5-min Rain = 0
KSM2 202213Z 17012KT 38/14 A2988 RMK A01 T03780140  RH  024%=      5-min Rain = 0
KSM2 202214Z 15010KT 38/14 A2988 RMK A01 T03770144  RH  025%=      5-min Rain = 0
KSM2 202215Z 13013KT 38/14 A2988 RMK A01 T03790142  RH  025%=      5-min Rain = 0
KSM2 202216Z 14012KT 38/14 A2988 RMK A01 T03790140  RH  024%=      5-min Rain = 0
KSM2 202217Z 15008KT 38/14 A2988 RMK A01 T03780144  RH  025%=      5-min Rain = 0
KSM2 202218Z 16010KT 38/14 A2988 RMK A01 T03780143  RH  025%=      5-min Rain = 0
KSM2 202219Z 16008KT 38/15 A2988 RMK A01 T03790146  RH  025%=      5-min Rain = 0
KSM2 202220Z 18009KT 38/15 A2988 RMK A01 T03790148  RH  025%=      5-min Rain = 0
KSM2 202221Z 18013KT 38/14 A2988 RMK A01 T03800141  RH  024%=      5-min Rain = 0
KSM2 202222Z 20011KT 38/14 A2988 RMK A01 T03800143  RH  025%=      5-min Rain = 0
KSM2 202223Z 19010KT 38/14 A2988 RMK A01 T03790139  RH  024%=      5-min Rain = 0
KSM2 202224Z 19012KT 38/14 A2988 RMK A01 T03780144  RH  025%=      5-min Rain = 0
KSM2 202225Z 17011KT 38/15 A2988 RMK A01 T03790148  RH  025%=      5-min Rain = 0
KSM2 202226Z 15015KT 38/14 A2988 RMK A01 T03810141  RH  024%=      5-min Rain = 0
KSM2 202227Z 15012KT 38/14 A2988 RMK A01 T03790139  RH  024%=      5-min Rain = 0
KSM2 202228Z 17012KT 38/14 A2988 RMK A01 T03790140  RH  024%=      5-min Rain = 0
KSM2 202229Z 16011KT 38/14 A2988 RMK A01 T03780140  RH  024%=      5-min Rain = 0
KSM2 202230Z 15011KT 38/14 A2988 RMK A01 T03780142  RH  025%=      5-min Rain = 0
KSM2 202231Z 15011KT 38/14 A2988 RMK A01 T03790138  RH  024%=      5-min Rain = 0
KSM2 202232Z 14010KT 38/14 A2988 RMK A01 T03790138  RH  024%=      5-min Rain = 0
KSM2 202233Z 15010KT 38/14 A2988 RMK A01 T03790141  RH  024%=      5-min Rain = 0
KSM2 202234Z 15012KT 38/14 A2988 RMK A01 T03790139  RH  024%=      5-min Rain = 0
KSM2 202235Z 15009KT 38/14 A2988 RMK A01 T03790140  RH  024%=      5-min Rain = 0
KSM2 202236Z 17011KT 38/14 A2988 RMK A01 T03780142  RH  025%=      5-min Rain = 0
KSM2 202237Z 17011KT 38/15 A2988 RMK A01 T03770145  RH  025%=      5-min Rain = 0
KSM2 202238Z 18011KT 38/14 A2988 RMK A01 T03790143  RH  025%=      5-min Rain = 0
KSM2 202239Z 18013G18KT 38/14 A2988 RMK A01 T03800144  RH  025%=      5-min Rain = 0
KSM2 202240Z 18015KT 38/14 A2988 RMK A01 T03790138  RH  024%=      5-min Rain = 0
KSM2 202241Z 18013KT 38/14 A2988 RMK A01 T03760140  RH  025%=      5-min Rain = 0
KSM2 202242Z 18011KT 38/14 A2987 RMK A01 T03760141  RH  025%=      5-min Rain = 0
KSM2 202243Z 18008KT 38/14 A2987 RMK A01 T03760141  RH  025%=      5-min Rain = 0
KSM2 202244Z 16011KT 38/15 A2987 RMK A01 T03790146  RH  025%=      5-min Rain = 0
KSM2 202245Z 15012KT 38/14 A2987 RMK A01 T03820140  RH  024%=      5-min Rain = 0
KSM2 202246Z 15011KT 38/14 A2987 RMK A01 T03820137  RH  023%=      5-min Rain = 0
KSM2 202247Z 15013G18KT 38/14 A2987 RMK A01 T03800137  RH  024%=      5-min Rain = 0
KSM2 202248Z 17010KT 38/14 A2987 RMK A01 T03800140  RH  024%=      5-min Rain = 0
KSM2 202249Z 17010KT 38/14 A2987 RMK A01 T03800141  RH  024%=      5-min Rain = 0
KSM2 202250Z 17012KT 38/14 A2987 RMK A01 T03800139  RH  024%=      5-min Rain = 0
KSM2 202251Z 15011KT 38/14 A2987 RMK A01 T03800140  RH  024%=      5-min Rain = 0
KSM2 202252Z 15008KT 38/14 A2987 RMK A01 T03800138  RH  024%=      5-min Rain = 0
KSM2 202253Z 14008G13KT 38/14 A2987 RMK A01 T03820138  RH  024%=      5-min Rain = 0
KSM2 202254Z 14011KT 38/14 A2987 RMK A01 T03820139  RH  024%=      5-min Rain = 0
KSM2 202255Z 13010KT 38/14 A2987 RMK A01 T03810139  RH  024%=      5-min Rain = 0
KSM2 202256Z 15012KT 38/14 A2987 RMK A01 T03810140  RH  024%=      5-min Rain = 0
KSM2 202257Z 17014KT 38/14 A2987 RMK A01 T03790139  RH  024%=      5-min Rain = 0
KSM2 202258Z 16012KT 38/14 A2987 RMK A01 T03780141  RH  024%=      5-min Rain = 0
KSM2 202259Z 15013KT 38/14 A2987 RMK A01 T03780138  RH  024%=      5-min Rain = 0
KSM2 202300Z 15013KT 38/14 A2987 RMK A01 T03780139  RH  024%=      5-min Rain = 0
KSM2 202301Z 15011G16KT 38/14 A2987 RMK A01 T03780140  RH  024%=      5-min Rain = 0
KSM2 202302Z 14014KT 38/14 A2987 RMK A01 T03790138  RH  024%=      5-min Rain = 0
KSM2 202303Z 14014KT 38/14 A2987 RMK A01 T03790137  RH  024%=      5-min Rain = 0
KSM2 202304Z 17011KT 38/14 A2987 RMK A01 T03790138  RH  024%=      5-min Rain = 0
KSM2 202305Z 17009KT 38/14 A2987 RMK A01 T03780140  RH  024%=      5-min Rain = 0
KSM2 202306Z 16008G15KT 38/15 A2987 RMK A01 T03790145  RH  025%=      5-min Rain = 0
KSM2 202307Z 15014G19KT 38/14 A2987 RMK A01 T03810142  RH  024%=      5-min Rain = 0
KSM2 202308Z 15016KT 38/14 A2987 RMK A01 T03800141  RH  024%=      5-min Rain = 0
KSM2 202309Z 15015G20KT 38/14 A2987 RMK A01 T03780139  RH  024%=      5-min Rain = 0
KSM2 202310Z 17011KT 38/14 A2987 RMK A01 T03770142  RH  025%=      5-min Rain = 0
KSM2 202311Z 16011KT 38/14 A2987 RMK A01 T03770140  RH  024%=      5-min Rain = 0
KSM2 202312Z 15013KT 38/14 A2987 RMK A01 T03760140  RH  025%=      5-min Rain = 0
KSM2 202313Z 16012KT 38/14 A2987 RMK A01 T03770141  RH  025%=      5-min Rain = 0
KSM2 202314Z 17012KT 38/14 A2987 RMK A01 T03770142  RH  025%=      5-min Rain = 0
KSM2 202315Z 17011KT 38/14 A2987 RMK A01 T03770142  RH  025%=      5-min Rain = 0
KSM2 202316Z 16010KT 38/14 A2987 RMK A01 T03760142  RH  025%=      5-min Rain = 0
KSM2 202317Z 16011KT 38/14 A2987 RMK A01 T03770143  RH  025%=      5-min Rain = 0
KSM2 202318Z 15012KT 38/14 A2987 RMK A01 T03790143  RH  025%=      5-min Rain = 0
KSM2 202319Z 17011KT 38/14 A2987 RMK A01 T03790142  RH  025%=      5-min Rain = 0
KSM2 202320Z 15009KT 38/14 A2987 RMK A01 T03780142  RH  025%=      5-min Rain = 0
KSM2 202321Z 15011KT 38/14 A2987 RMK A01 T03780140  RH  024%=      5-min Rain = 0
KSM2 202322Z 15012KT 38/14 A2987 RMK A01 T03770139  RH  024%=      5-min Rain = 0
KSM2 202323Z 14013KT 38/14 A2987 RMK A01 T03770139  RH  024%=      5-min Rain = 0
KSM2 202324Z 15010KT 38/14 A2987 RMK A01 T03760140  RH  025%=      5-min Rain = 0
KSM2 202325Z 15010KT 38/14 A2986 RMK A01 T03760142  RH  025%=      5-min Rain = 0
KSM2 202326Z 16012KT 38/14 A2986 RMK A01 T03770142  RH  025%=      5-min Rain = 0
KSM2 202327Z 15015G21KT 38/14 A2986 RMK A01 T03760143  RH  025%=      5-min Rain = 0
KSM2 202328Z 16014G19KT 38/14 A2986 RMK A01 T03750142  RH  025%=      5-min Rain = 0
KSM2 202329Z 17014KT 38/14 A2986 RMK A01 T03750142  RH  025%=      5-min Rain = 0
KSM2 202330Z 16011KT 37/14 A2986 RMK A01 T03740144  RH  025%=      5-min Rain = 0
KSM2 202331Z 16009KT 38/14 A2986 RMK A01 T03750144  RH  025%=      5-min Rain = 0
KSM2 202332Z 17012G17KT 38/15 A2986 RMK A01 T03770145  RH  025%=      5-min Rain = 0
KSM2 202333Z 16011KT 38/14 A2986 RMK A01 T03770143  RH  025%=      5-min Rain = 0
KSM2 202334Z 16012KT 38/14 A2986 RMK A01 T03760142  RH  025%=      5-min Rain = 0
KSM2 202335Z 16011KT 38/14 A2986 RMK A01 T03760141  RH  025%=      5-min Rain = 0
KSM2 202336Z 16012KT 38/14 A2986 RMK A01 T03760142  RH  025%=      5-min Rain = 0
KSM2 202337Z 17010KT 38/14 A2986 RMK A01 T03760142  RH  025%=      5-min Rain = 0
KSM2 202338Z 17013KT 38/14 A2986 RMK A01 T03760143  RH  025%=      5-min Rain = 0
KSM2 202339Z 16011KT 37/14 A2986 RMK A01 T03740142  RH  025%=      5-min Rain = 0
KSM2 202340Z 15013G19KT 37/14 A2986 RMK A01 T03740142  RH  025%=      5-min Rain = 0
KSM2 202341Z 14015KT 37/14 A2986 RMK A01 T03740140  RH  025%=      5-min Rain = 0
KSM2 202342Z 15010KT 37/14 A2986 RMK A01 T03740142  RH  025%=      5-min Rain = 0
KSM2 202343Z 14013KT 37/14 A2986 RMK A01 T03730142  RH  025%=      5-min Rain = 0
KSM2 202344Z 16011G17KT 37/14 A2986 RMK A01 T03740141  RH  025%=      5-min Rain = 0
KSM2 202345Z 17013KT 37/14 A2986 RMK A01 T03740142  RH  025%=      5-min Rain = 0
KSM2 202346Z 16012KT 37/14 A2986 RMK A01 T03740141  RH  025%=      5-min Rain = 0
KSM2 202347Z 15012G17KT 37/14 A2986 RMK A01 T03740141  RH  025%=      5-min Rain = 0
KSM2 202348Z 15014KT 37/14 A2986 RMK A01 T03740140  RH  025%=      5-min Rain = 0
KSM2 202349Z 16011KT 37/14 A2986 RMK A01 T03730141  RH  025%=      5-min Rain = 0
KSM2 202350Z 15012KT 37/14 A2986 RMK A01 T03730142  RH  025%=      5-min Rain = 0
KSM2 202351Z 16013KT 37/14 A2986 RMK A01 T03730141  RH  025%=      5-min Rain = 0
KSM2 202352Z 16011KT 37/14 A2986 RMK A01 T03730143  RH  026%=      5-min Rain = 0
KSM2 202353Z 16010KT 37/14 A2986 RMK A01 T03730143  RH  026%=      5-min Rain = 0
KSM2 202354Z 16012KT 37/14 A2986 RMK A01 T03740143  RH  025%=      5-min Rain = 0
KSM2 202355Z 17014KT 37/14 A2986 RMK A01 T03740142  RH  025%=      5-min Rain = 0
KSM2 202356Z 15012KT 37/14 A2986 RMK A01 T03730141  RH  025%=      5-min Rain = 0
KSM2 202357Z 15016KT 37/14 A2986 RMK A01 T03730140  RH  025%=      5-min Rain = 0
KSM2 202358Z 14017KT 37/14 A2986 RMK A01 T03720139  RH  025%=      5-min Rain = 0
KSM2 202359Z 15011KT 37/14 A2986 RMK A01 T03710139  RH  025%=      5-min Rain = 0
KSM2 210000Z 16012KT 37/14 A2986 RMK A01 T03710140  RH  025%=      5-min Rain = 0
KSM2 210001Z 15009KT 37/14 A2986 RMK A01 T03710141  RH  025%=      5-min Rain = 0
KSM2 210002Z 14013KT 37/14 A2986 RMK A01 T03720141  RH  025%=      5-min Rain = 0
KSM2 210003Z 15014KT 37/14 A2986 RMK A01 T03720140  RH  025%=      5-min Rain = 0
KSM2 210004Z 15011KT 37/14 A2986 RMK A01 T03710142  RH  026%=      5-min Rain = 0
KSM2 210005Z 15014KT 37/14 A2986 RMK A01 T03700142  RH  026%=      5-min Rain = 0
KSM2 210006Z 15015KT 37/14 A2985 RMK A01 T03710141  RH  026%=      5-min Rain = 0
KSM2 210007Z 17015KT 37/14 A2986 RMK A01 T03710141  RH  025%=      5-min Rain = 0
KSM2 210008Z 16011KT 37/14 A2986 RMK A01 T03710143  RH  026%=      5-min Rain = 0
KSM2 210009Z 15014KT 37/14 A2986 RMK A01 T03710142  RH  026%=      5-min Rain = 0
KSM2 210010Z 15015G21KT 37/14 A2986 RMK A01 T03710140  RH  025%=      5-min Rain = 0
KSM2 210011Z 18014G19KT 37/14 A2986 RMK A01 T03700140  RH  025%=      5-min Rain = 0
KSM2 210012Z 17013KT 37/14 A2986 RMK A01 T03700141  RH  026%=      5-min Rain = 0
KSM2 210013Z 17016G21KT 37/14 A2986 RMK A01 T03690140  RH  025%=      5-min Rain = 0
KSM2 210014Z 16014KT 37/14 A2986 RMK A01 T03690139  RH  025%=      5-min Rain = 0
KSM2 210015Z 15015KT 37/14 A2986 RMK A01 T03690139  RH  025%=      5-min Rain = 0
KSM2 210016Z 16011KT 37/14 A2986 RMK A01 T03680139  RH  026%=      5-min Rain = 0
KSM2 210017Z 16011G16KT 37/14 A2986 RMK A01 T03690140  RH  026%=      5-min Rain = 0
KSM2 210018Z 16011G16KT 37/14 A2986 RMK A01 T03690140  RH  026%=      5-min Rain = 0
KSM2 210019Z 17012KT 37/14 A2986 RMK A01 T03690138  RH  025%=      5-min Rain = 0
KSM2 210020Z 16010KT 37/14 A2986 RMK A01 T03690141  RH  026%=      5-min Rain = 0
KSM2 210021Z 16010G15KT 37/14 A2986 RMK A01 T03690140  RH  026%=      5-min Rain = 0
KSM2 210022Z 16015G20KT 37/14 A2986 RMK A01 T03690139  RH  025%=      5-min Rain = 0
KSM2 210023Z 16014KT 37/14 A2986 RMK A01 T03700139  RH  025%=      5-min Rain = 0
KSM2 210024Z 15013KT 37/14 A2986 RMK A01 T03690139  RH  025%=      5-min Rain = 0
KSM2 210025Z 15014KT 37/14 A2986 RMK A01 T03680138  RH  025%=      5-min Rain = 0
KSM2 210026Z 16014G19KT 37/14 A2986 RMK A01 T03680138  RH  025%=      5-min Rain = 0
KSM2 210027Z 15015KT 37/14 A2986 RMK A01 T03670137  RH  025%=      5-min Rain = 0
KSM2 210028Z 16016KT 37/14 A2986 RMK A01 T03670137  RH  025%=      5-min Rain = 0
KSM2 210029Z 16012G17KT 37/14 A2986 RMK A01 T03670138  RH  026%=      5-min Rain = 0
KSM2 210030Z 17011KT 37/14 A2986 RMK A01 T03670140  RH  026%=      5-min Rain = 0
KSM2 210031Z 15012G17KT 37/14 A2986 RMK A01 T03670140  RH  026%=      5-min Rain = 0
KSM2 210032Z 16014KT 37/14 A2986 RMK A01 T03670138  RH  026%=      5-min Rain = 0
KSM2 210033Z 16011KT 37/14 A2986 RMK A01 T03670139  RH  026%=      5-min Rain = 0
KSM2 210034Z 16009KT 37/14 A2986 RMK A01 T03670139  RH  026%=      5-min Rain = 0
KSM2 210035Z 16011KT 37/14 A2986 RMK A01 T03670139  RH  026%=      5-min Rain = 0
KSM2 210036Z 16014KT 37/14 A2986 RMK A01 T03670139  RH  026%=      5-min Rain = 0
KSM2 210037Z 16014G19KT 37/14 A2986 RMK A01 T03660138  RH  026%=      5-min Rain = 0
KSM2 210038Z 17015G21KT 37/14 A2986 RMK A01 T03660138  RH  026%=      5-min Rain = 0
KSM2 210039Z 16013KT 37/14 A2986 RMK A01 T03650138  RH  026%=      5-min Rain = 0
KSM2 210040Z 16012G18KT 37/14 A2986 RMK A01 T03650139  RH  026%=      5-min Rain = 0
KSM2 210041Z 16014KT 37/14 A2986 RMK A01 T03650138  RH  026%=      5-min Rain = 0
KSM2 210042Z 16014KT 37/14 A2986 RMK A01 T03650136  RH  026%=      5-min Rain = 0
KSM2 210043Z 15012G18KT 37/14 A2986 RMK A01 T03650136  RH  025%=      5-min Rain = 0
KSM2 210044Z 15013KT 37/14 A2986 RMK A01 T03650136  RH  025%=      5-min Rain = 0
KSM2 210045Z 15012G17KT 37/14 A2986 RMK A01 T03650136  RH  026%=      5-min Rain = 0
KSM2 210046Z 15012KT 36/14 A2986 RMK A01 T03640137  RH  026%=      5-min Rain = 0
KSM2 210047Z 16016KT 36/14 A2986 RMK A01 T03640136  RH  026%=      5-min Rain = 0
KSM2 210048Z 16013KT 36/14 A2986 RMK A01 T03640136  RH  026%=      5-min Rain = 0
KSM2 210049Z 15013KT 36/14 A2986 RMK A01 T03630136  RH  026%=      5-min Rain = 0
KSM2 210050Z 15012KT 36/14 A2986 RMK A01 T03630136  RH  026%=      5-min Rain = 0
KSM2 210051Z 15012KT 36/14 A2986 RMK A01 T03630136  RH  026%=      5-min Rain = 0
KSM2 210052Z 15014KT 36/14 A2986 RMK A01 T03630137  RH  026%=      5-min Rain = 0
KSM2 210053Z 16013KT 36/14 A2986 RMK A01 T03630137  RH  026%=      5-min Rain = 0
KSM2 210054Z 16012KT 36/14 A2986 RMK A01 T03630137  RH  026%=      5-min Rain = 0
KSM2 210055Z 15013KT 36/14 A2986 RMK A01 T03620137  RH  026%=      5-min Rain = 0
KSM2 210056Z 16013KT 36/14 A2986 RMK A01 T03620137  RH  026%=      5-min Rain = 0
KSM2 210057Z 15009KT 36/14 A2986 RMK A01 T03620137  RH  026%=      5-min Rain = 0
KSM2 210058Z 16012KT 36/14 A2986 RMK A01 T03620137  RH  026%=      5-min Rain = 0
KSM2 210059Z 15011KT 36/14 A2986 RMK A01 T03620136  RH  026%=      5-min Rain = 0
KSM2 210100Z 15013KT 36/14 A2986 RMK A01 T03620136  RH  026%=      5-min Rain = 0
KSM2 210101Z 16012KT 36/14 A2986 RMK A01 T03610135  RH  026%=      5-min Rain = 0
KSM2 210102Z 16012KT 36/14 A2986 RMK A01 T03610135  RH  026%=      5-min Rain = 0
KSM2 210103Z 16012G18KT 36/14 A2986 RMK A01 T03600135  RH  026%=      5-min Rain = 0
KSM2 210104Z 16009G14KT 36/14 A2986 RMK A01 T03600135  RH  026%=      5-min Rain = 0
KSM2 210105Z 15012KT 36/14 A2986 RMK A01 T03600135  RH  026%=      5-min Rain = 0
KSM2 210106Z 16014KT 36/14 A2986 RMK A01 T03600135  RH  026%=      5-min Rain = 0
KSM2 210107Z 16013KT 36/14 A2986 RMK A01 T03600135  RH  026%=      5-min Rain = 0
KSM2 210108Z 16011KT 36/14 A2986 RMK A01 T03600136  RH  026%=      5-min Rain = 0
KSM2 210109Z 16010G16KT 36/14 A2986 RMK A01 T03590137  RH  027%=      5-min Rain = 0
KSM2 210110Z 16012KT 36/14 A2986 RMK A01 T03580136  RH  026%=      5-min Rain = 0
KSM2 210111Z 16011G16KT 36/14 A2986 RMK A01 T03580136  RH  027%=      5-min Rain = 0
KSM2 210112Z 15012KT 36/14 A2986 RMK A01 T03570136  RH  027%=      5-min Rain = 0
KSM2 210113Z 16013KT 36/13 A2986 RMK A01 T03570134  RH  026%=      5-min Rain = 0
KSM2 210114Z 16011KT 36/13 A2986 RMK A01 T03570134  RH  026%=      5-min Rain = 0
KSM2 210115Z 16009KT 36/14 A2986 RMK A01 T03570136  RH  027%=      5-min Rain = 0
KSM2 210116Z 16011KT 36/14 A2986 RMK A01 T03560135  RH  027%=      5-min Rain = 0
KSM2 210117Z 16012KT 36/13 A2987 RMK A01 T03560133  RH  026%=      5-min Rain = 0
KSM2 210118Z 16011KT 36/13 A2986 RMK A01 T03560134  RH  026%=      5-min Rain = 0
KSM2 210119Z 16012KT 36/13 A2987 RMK A01 T03560134  RH  026%=      5-min Rain = 0
KSM2 210120Z 15011KT 36/14 A2987 RMK A01 T03560135  RH  027%=      5-min Rain = 0
KSM2 210121Z 16009KT 36/14 A2987 RMK A01 T03560135  RH  027%=      5-min Rain = 0
KSM2 210122Z 15012KT 36/13 A2987 RMK A01 T03550134  RH  027%=      5-min Rain = 0
KSM2 210123Z 16012KT 36/13 A2987 RMK A01 T03550133  RH  026%=      5-min Rain = 0
KSM2 210124Z 16011KT 36/13 A2987 RMK A01 T03550133  RH  026%=      5-min Rain = 0
KSM2 210125Z 16012KT 36/13 A2987 RMK A01 T03550133  RH  026%=      5-min Rain = 0
KSM2 210126Z 15012KT 35/13 A2987 RMK A01 T03540133  RH  026%=      5-min Rain = 0
KSM2 210127Z 16012KT 35/13 A2987 RMK A01 T03540133  RH  027%=      5-min Rain = 0
KSM2 210128Z 15010KT 35/13 A2987 RMK A01 T03540134  RH  027%=      5-min Rain = 0
KSM2 210129Z 15011KT 35/13 A2987 RMK A01 T03530134  RH  027%=      5-min Rain = 0
KSM2 210130Z 15011KT 35/13 A2987 RMK A01 T03530134  RH  027%=      5-min Rain = 0
KSM2 210131Z 15013KT 35/13 A2987 RMK A01 T03530133  RH  027%=      5-min Rain = 0
KSM2 210132Z 16011KT 35/13 A2987 RMK A01 T03530134  RH  027%=      5-min Rain = 0
KSM2 210133Z 15009KT 35/13 A2987 RMK A01 T03520134  RH  027%=      5-min Rain = 0
KSM2 210134Z 15008KT 35/13 A2987 RMK A01 T03510134  RH  027%=      5-min Rain = 0
KSM2 210135Z 15011KT 35/13 A2987 RMK A01 T03510134  RH  027%=      5-min Rain = 0
KSM2 210136Z 15010KT 35/14 A2987 RMK A01 T03500135  RH  027%=      5-min Rain = 0
KSM2 210137Z 15008KT 35/14 A2987 RMK A01 T03500135  RH  027%=      5-min Rain = 0
KSM2 210138Z 15007KT 35/14 A2987 RMK A01 T03490135  RH  028%=      5-min Rain = 0
KSM2 210139Z 15008KT 35/14 A2987 RMK A01 T03480135  RH  028%=      5-min Rain = 0
KSM2 210140Z 15008KT 35/14 A2987 RMK A01 T03480135  RH  028%=      5-min Rain = 0
KSM2 210141Z 15008KT 35/14 A2987 RMK A01 T03470135  RH  028%=      5-min Rain = 0
KSM2 210142Z 15008KT 35/14 A2987 RMK A01 T03470135  RH  028%=      5-min Rain = 0
KSM2 210143Z 15009KT 35/14 A2987 RMK A01 T03460135  RH  028%=      5-min Rain = 0
KSM2 210144Z 15008KT 35/14 A2987 RMK A01 T03460135  RH  028%=      5-min Rain = 0
KSM2 210145Z 15008KT 35/14 A2987 RMK A01 T03460135  RH  028%=      5-min Rain = 0
KSM2 210146Z 15008KT 35/14 A2987 RMK A01 T03450135  RH  028%=      5-min Rain = 0
KSM2 210147Z 15008KT 34/14 A2987 RMK A01 T03440135  RH  028%=      5-min Rain = 0
KSM2 210148Z 16008KT 34/14 A2987 RMK A01 T03440135  RH  028%=      5-min Rain = 0
KSM2 210149Z 15008KT 34/14 A2987 RMK A01 T03440135  RH  028%=      5-min Rain = 0
KSM2 210150Z 15007KT 34/14 A2987 RMK A01 T03440135  RH  028%=      5-min Rain = 0
KSM2 210151Z 15007KT 34/14 A2987 RMK A01 T03420135  RH  029%=      5-min Rain = 0
KSM2 210152Z 15006KT 34/14 A2987 RMK A01 T03420135  RH  029%=      5-min Rain = 0
KSM2 210153Z 15007KT 34/14 A2987 RMK A01 T03410135  RH  029%=      5-min Rain = 0
KSM2 210154Z 15008KT 34/14 A2987 RMK A01 T03400135  RH  029%=      5-min Rain = 0
KSM2 210155Z 15006KT 34/14 A2987 RMK A01 T03400135  RH  029%=      5-min Rain = 0
KSM2 210156Z 16007KT 34/14 A2987 RMK A01 T03400136  RH  029%=      5-min Rain = 0
KSM2 210157Z 16007KT 34/14 A2987 RMK A01 T03390136  RH  029%=      5-min Rain = 0
KSM2 210158Z 16008KT 34/14 A2987 RMK A01 T03390135  RH  029%=      5-min Rain = 0
KSM2 210159Z 16008KT 34/14 A2987 RMK A01 T03400136  RH  029%=      5-min Rain = 0
KSM2 210200Z 16008KT 34/14 A2987 RMK A01 T03390135  RH  029%=      5-min Rain = 0
KSM2 210201Z 15006KT 34/14 A2987 RMK A01 T03390135  RH  029%=      5-min Rain = 0
KSM2 210202Z 16009KT 34/14 A2987 RMK A01 T03380135  RH  029%=      5-min Rain = 0
KSM2 210203Z 15008KT 34/14 A2987 RMK A01 T03370135  RH  029%=      5-min Rain = 0
KSM2 210204Z 15008KT 34/14 A2987 RMK A01 T03380135  RH  029%=      5-min Rain = 0
KSM2 210205Z 15008KT 34/14 A2987 RMK A01 T03380135  RH  029%=      5-min Rain = 0
KSM2 210206Z 16007KT 34/14 A2987 RMK A01 T03370135  RH  030%=      5-min Rain = 0
KSM2 210207Z 15008KT 34/14 A2987 RMK A01 T03370135  RH  030%=      5-min Rain = 0
KSM2 210208Z 16007KT 34/14 A2987 RMK A01 T03370135  RH  030%=      5-min Rain = 0
KSM2 210209Z 15007KT 34/14 A2987 RMK A01 T03370135  RH  030%=      5-min Rain = 0
KSM2 210210Z 15008KT 34/14 A2987 RMK A01 T03360135  RH  030%=      5-min Rain = 0
KSM2 210211Z 16009KT 34/14 A2987 RMK A01 T03360135  RH  030%=      5-min Rain = 0
KSM2 210212Z 15010KT 34/13 A2987 RMK A01 T03350134  RH  030%=      5-min Rain = 0
KSM2 210213Z 16009KT 34/13 A2987 RMK A01 T03350134  RH  030%=      5-min Rain = 0
KSM2 210214Z 16010KT 34/13 A2987 RMK A01 T03350134  RH  030%=      5-min Rain = 0
KSM2 210215Z 16008KT 34/13 A2987 RMK A01 T03360134  RH  030%=      5-min Rain = 0
KSM2 210216Z 16009KT 34/13 A2987 RMK A01 T03360134  RH  030%=      5-min Rain = 0
KSM2 210217Z 15009KT 34/13 A2987 RMK A01 T03350134  RH  030%=      5-min Rain = 0
KSM2 210218Z 15009KT 34/13 A2987 RMK A01 T03350133  RH  030%=      5-min Rain = 0
KSM2 210219Z 15009KT 34/13 A2987 RMK A01 T03350133  RH  030%=      5-min Rain = 0
KSM2 210220Z 15009KT 34/13 A2988 RMK A01 T03350133  RH  030%=      5-min Rain = 0
KSM2 210221Z 15007KT 33/13 A2988 RMK A01 T03340134  RH  030%=      5-min Rain = 0
KSM2 210222Z 14007KT 33/13 A2988 RMK A01 T03340134  RH  030%=      5-min Rain = 0
KSM2 210223Z 16009KT 33/13 A2988 RMK A01 T03320134  RH  030%=      5-min Rain = 0
KSM2 210224Z 16008KT 33/13 A2988 RMK A01 T03320133  RH  030%=      5-min Rain = 0
KSM2 210225Z 15008KT 33/13 A2988 RMK A01 T03320134  RH  030%=      5-min Rain = 0
KSM2 210226Z 15007KT 33/13 A2988 RMK A01 T03320134  RH  030%=      5-min Rain = 0
KSM2 210227Z 16007KT 33/13 A2988 RMK A01 T03310134  RH  030%=      5-min Rain = 0
KSM2 210228Z 16008KT 33/13 A2988 RMK A01 T03310134  RH  030%=      5-min Rain = 0
KSM2 210229Z 15007KT 33/13 A2988 RMK A01 T03310134  RH  030%=      5-min Rain = 0
KSM2 210230Z 15008KT 33/13 A2988 RMK A01 T03310134  RH  030%=      5-min Rain = 0
KSM2 210231Z 16009KT 33/13 A2988 RMK A01 T03310134  RH  030%=      5-min Rain = 0
KSM2 210232Z 16008KT 33/13 A2988 RMK A01 T03300134  RH  030%=      5-min Rain = 0
KSM2 210233Z 15009KT 33/13 A2988 RMK A01 T03300134  RH  030%=      5-min Rain = 0
KSM2 210234Z 15007KT 33/13 A2988 RMK A01 T03290133  RH  031%=      5-min Rain = 0
KSM2 210235Z 16009KT 33/13 A2988 RMK A01 T03290133  RH  031%=      5-min Rain = 0
KSM2 210236Z 15008KT 33/13 A2988 RMK A01 T03290133  RH  030%=      5-min Rain = 0
KSM2 210237Z 15009KT 33/13 A2988 RMK A01 T03290134  RH  031%=      5-min Rain = 0
KSM2 210238Z 15010KT 33/13 A2988 RMK A01 T03290133  RH  031%=      5-min Rain = 0
KSM2 210239Z 15008KT 33/13 A2988 RMK A01 T03290133  RH  031%=      5-min Rain = 0
KSM2 210240Z 16008KT 33/13 A2988 RMK A01 T03280133  RH  031%=      5-min Rain = 0
KSM2 210241Z 15008KT 33/13 A2988 RMK A01 T03280133  RH  031%=      5-min Rain = 0
KSM2 210242Z 16007KT 33/13 A2988 RMK A01 T03280133  RH  031%=      5-min Rain = 0
KSM2 210243Z 15008KT 33/13 A2988 RMK A01 T03280133  RH  031%=      5-min Rain = 0
KSM2 210244Z 16008KT 33/13 A2988 RMK A01 T03270133  RH  031%=      5-min Rain = 0
KSM2 210245Z 15009KT 33/13 A2988 RMK A01 T03270133  RH  031%=      5-min Rain = 0
KSM2 210246Z 16009KT 33/13 A2988 RMK A01 T03270132  RH  031%=      5-min Rain = 0
KSM2 210247Z 15009KT 33/13 A2988 RMK A01 T03260133  RH  031%=      5-min Rain = 0
KSM2 210248Z 16009KT 33/13 A2988 RMK A01 T03260132  RH  031%=      5-min Rain = 0
KSM2 210249Z 16009KT 33/13 A2988 RMK A01 T03260132  RH  031%=      5-min Rain = 0
KSM2 210250Z 16009KT 33/13 A2988 RMK A01 T03260133  RH  031%=      5-min Rain = 0
KSM2 210251Z 15008KT 33/13 A2988 RMK A01 T03260132  RH  031%=      5-min Rain = 0
KSM2 210252Z 15007KT 33/13 A2988 RMK A01 T03250133  RH  031%=      5-min Rain = 0
KSM2 210253Z 15011KT 33/13 A2988 RMK A01 T03250132  RH  031%=      5-min Rain = 0
KSM2 210254Z 15008KT 33/13 A2988 RMK A01 T03250131  RH  031%=      5-min Rain = 0
KSM2 210255Z 15009KT 33/13 A2988 RMK A01 T03250131  RH  031%=      5-min Rain = 0
KSM2 210256Z 15009KT 33/13 A2988 RMK A01 T03260132  RH  031%=      5-min Rain = 0
KSM2 210257Z 16008KT 33/13 A2988 RMK A01 T03260132  RH  031%=      5-min Rain = 0
KSM2 210258Z 16009KT 33/13 A2988 RMK A01 T03250132  RH  031%=      5-min Rain = 0
KSM2 210259Z 15009KT 33/13 A2988 RMK A01 T03250132  RH  031%=      5-min Rain = 0
KSM2 210300Z 15008KT 32/13 A2988 RMK A01 T03240132  RH  031%=      5-min Rain = 0
KSM2 210301Z 16008KT 32/13 A2988 RMK A01 T03230132  RH  031%=      5-min Rain = 0
KSM2 210302Z 15007KT 32/13 A2988 RMK A01 T03230132  RH  031%=      5-min Rain = 0
KSM2 210303Z 14008KT 32/13 A2988 RMK A01 T03220132  RH  032%=      5-min Rain = 0
KSM2 210304Z 15007KT 32/13 A2989 RMK A01 T03210132  RH  032%=      5-min Rain = 0
KSM2 210305Z 15008KT 32/13 A2989 RMK A01 T03200133  RH  032%=      5-min Rain = 0
KSM2 210306Z 15007KT 32/13 A2989 RMK A01 T03200133  RH  032%=      5-min Rain = 0
KSM2 210307Z 15008KT 32/13 A2989 RMK A01 T03190133  RH  032%=      5-min Rain = 0
KSM2 210308Z 15008KT 32/13 A2989 RMK A01 T03190133  RH  032%=      5-min Rain = 0
KSM2 210309Z 15008KT 32/13 A2989 RMK A01 T03190133  RH  032%=      5-min Rain = 0
KSM2 210310Z 16007KT 32/13 A2989 RMK A01 T03190133  RH  032%=      5-min Rain = 0
KSM2 210311Z 15010KT 32/13 A2989 RMK A01 T03190133  RH  032%=      5-min Rain = 0
KSM2 210312Z 15010KT 32/13 A2989 RMK A01 T03180133  RH  032%=      5-min Rain = 0
KSM2 210313Z 16010KT 32/13 A2989 RMK A01 T03190133  RH  032%=      5-min Rain = 0
KSM2 210314Z 16009KT 32/13 A2989 RMK A01 T03190134  RH  032%=      5-min Rain = 0
KSM2 210315Z 16011KT 32/13 A2989 RMK A01 T03190134  RH  032%=      5-min Rain = 0
KSM2 210316Z 15009KT 32/13 A2989 RMK A01 T03200134  RH  032%=      5-min Rain = 0
KSM2 210317Z 15010KT 32/14 A2989 RMK A01 T03200135  RH  032%=      5-min Rain = 0
KSM2 210318Z 15011KT 32/14 A2989 RMK A01 T03200135  RH  032%=      5-min Rain = 0
KSM2 210319Z 15010KT 32/14 A2989 RMK A01 T03200135  RH  033%=      5-min Rain = 0
KSM2 210320Z 16011KT 32/14 A2989 RMK A01 T03200135  RH  033%=      5-min Rain = 0
KSM2 210321Z 15010KT 32/14 A2989 RMK A01 T03200136  RH  033%=      5-min Rain = 0
KSM2 210322Z 16011KT 32/14 A299 RMK A01 T03200136  RH  033%=      5-min Rain = 0
KSM2 210323Z 16013KT 32/14 A299 RMK A01 T03190136  RH  033%=      5-min Rain = 0
KSM2 210324Z 16011KT 32/14 A299 RMK A01 T03200137  RH  033%=      5-min Rain = 0
KSM2 210325Z 16009KT 32/14 A299 RMK A01 T03200137  RH  033%=      5-min Rain = 0
KSM2 210326Z 15009KT 32/14 A299 RMK A01 T03200138  RH  033%=      5-min Rain = 0
KSM2 210327Z 16011KT 32/14 A299 RMK A01 T03190138  RH  033%=      5-min Rain = 0
KSM2 210328Z 16009KT 32/14 A299 RMK A01 T03190138  RH  033%=      5-min Rain = 0
KSM2 210329Z 16009KT 32/14 A299 RMK A01 T03190139  RH  034%=      5-min Rain = 0
KSM2 210330Z 16011KT 32/14 A299 RMK A01 T03180139  RH  034%=      5-min Rain = 0
KSM2 210331Z 16009KT 32/14 A299 RMK A01 T03180139  RH  034%=      5-min Rain = 0
KSM2 210332Z 16011KT 32/14 A299 RMK A01 T03180139  RH  034%=      5-min Rain = 0
KSM2 210333Z 16011KT 32/14 A299 RMK A01 T03190140  RH  034%=      5-min Rain = 0
KSM2 210334Z 16009KT 32/14 A299 RMK A01 T03180140  RH  034%=      5-min Rain = 0
KSM2 210335Z 16011KT 32/14 A299 RMK A01 T03180141  RH  034%=      5-min Rain = 0
KSM2 210336Z 16011KT 32/14 A299 RMK A01 T03190141  RH  034%=      5-min Rain = 0
KSM2 210337Z 16011KT 32/14 A299 RMK A01 T03180141  RH  034%=      5-min Rain = 0
KSM2 210338Z 16012KT 32/14 A299 RMK A01 T03180141  RH  034%=      5-min Rain = 0
KSM2 210339Z 16013G18KT 32/14 A299 RMK A01 T03190142  RH  034%=      5-min Rain = 0
KSM2 210340Z 16013KT 32/14 A299 RMK A01 T03180142  RH  034%=      5-min Rain = 0
KSM2 210341Z 16010KT 32/14 A299 RMK A01 T03180142  RH  034%=      5-min Rain = 0
KSM2 210342Z 16011KT 32/14 A299 RMK A01 T03180143  RH  035%=      5-min Rain = 0
KSM2 210343Z 16011KT 32/14 A299 RMK A01 T03170143  RH  035%=      5-min Rain = 0
KSM2 210344Z 16013KT 32/14 A299 RMK A01 T03170143  RH  035%=      5-min Rain = 0
KSM2 210345Z 16012G17KT 32/14 A299 RMK A01 T03180143  RH  035%=      5-min Rain = 0
KSM2 210346Z 16010KT 32/14 A2991 RMK A01 T03170144  RH  035%=      5-min Rain = 0
KSM2 210347Z 16011KT 32/14 A2991 RMK A01 T03170144  RH  035%=      5-min Rain = 0
KSM2 210348Z 16012KT 32/14 A2991 RMK A01 T03170144  RH  035%=      5-min Rain = 0
KSM2 210349Z 16012KT 32/14 A2991 RMK A01 T03160143  RH  035%=      5-min Rain = 0
KSM2 210350Z 17011KT 32/14 A2991 RMK A01 T03170144  RH  035%=      5-min Rain = 0
KSM2 210351Z 16011G16KT 32/14 A2991 RMK A01 T03170144  RH  035%=      5-min Rain = 0
KSM2 210352Z 16012KT 32/14 A2991 RMK A01 T03170144  RH  035%=      5-min Rain = 0
KSM2 210353Z 16013KT 32/14 A2991 RMK A01 T03170144  RH  035%=      5-min Rain = 0
KSM2 210354Z 16011G16KT 32/14 A2991 RMK A01 T03170144  RH  035%=      5-min Rain = 0
KSM2 210355Z 16012G18KT 32/14 A2991 RMK A01 T03170144  RH  035%=      5-min Rain = 0
KSM2 210356Z 16013G18KT 32/14 A2991 RMK A01 T03170144  RH  035%=      5-min Rain = 0
KSM2 210357Z 16012KT 32/14 A2991 RMK A01 T03160144  RH  035%=      5-min Rain = 0
KSM2 210358Z 16012KT 32/14 A2991 RMK A01 T03160143  RH  035%=      5-min Rain = 0
KSM2 210359Z 16012KT 32/14 A2991 RMK A01 T03160143  RH  035%=      5-min Rain = 0
KSM2 210400Z 16013KT 32/14 A2991 RMK A01 T03160143  RH  035%=      5-min Rain = 0
KSM2 210401Z 16012KT 32/14 A2991 RMK A01 T03160143  RH  035%=      5-min Rain = 0
KSM2 210402Z 16010KT 32/14 A2992 RMK A01 T03160143  RH  035%=      5-min Rain = 0
KSM2 210403Z 16012G17KT 32/14 A2992 RMK A01 T03160143  RH  035%=      5-min Rain = 0
KSM2 210404Z 16011KT 32/14 A2992 RMK A01 T03150143  RH  035%=      5-min Rain = 0
KSM2 210405Z 16013KT 32/14 A2992 RMK A01 T03150143  RH  035%=      5-min Rain = 0
KSM2 210406Z 16012KT 32/14 A2992 RMK A01 T03150143  RH  035%=      5-min Rain = 0
KSM2 210407Z 16013KT 32/14 A2992 RMK A01 T03150142  RH  035%=      5-min Rain = 0
KSM2 210408Z 16012KT 32/14 A2992 RMK A01 T03150142  RH  035%=      5-min Rain = 0
KSM2 210409Z 16013KT 32/14 A2992 RMK A01 T03150142  RH  035%=      5-min Rain = 0
KSM2 210410Z 16013KT 32/14 A2992 RMK A01 T03150142  RH  035%=      5-min Rain = 0
KSM2 210411Z 16015KT 32/14 A2992 RMK A01 T03150142  RH  035%=      5-min Rain = 0
KSM2 210412Z 16014G19KT 32/14 A2992 RMK A01 T03150142  RH  035%=      5-min Rain = 0
KSM2 210413Z 16014KT 32/14 A2992 RMK A01 T03150141  RH  035%=      5-min Rain = 0
KSM2 210414Z 16011KT 32/14 A2992 RMK A01 T03150141  RH  035%=      5-min Rain = 0
KSM2 210415Z 17012KT 31/14 A2992 RMK A01 T03140141  RH  035%=      5-min Rain = 0
KSM2 210416Z 16010G15KT 31/14 A2992 RMK A01 T03130140  RH  035%=      5-min Rain = 0
KSM2 210417Z 16012KT 31/14 A2992 RMK A01 T03130140  RH  035%=      5-min Rain = 0
KSM2 210418Z 16011KT 31/14 A2992 RMK A01 T03130140  RH  035%=      5-min Rain = 0
KSM2 210419Z 16011KT 31/14 A2992 RMK A01 T03130140  RH  035%=      5-min Rain = 0
KSM2 210420Z 16011KT 31/14 A2992 RMK A01 T03130140  RH  035%=      5-min Rain = 0
KSM2 210421Z 17012G17KT 31/14 A2993 RMK A01 T03130140  RH  035%=      5-min Rain = 0
KSM2 210422Z 17013KT 31/14 A2993 RMK A01 T03120139  RH  035%=      5-min Rain = 0
KSM2 210423Z 17013KT 31/14 A2993 RMK A01 T03120138  RH  035%=      5-min Rain = 0
KSM2 210424Z 16013KT 31/14 A2993 RMK A01 T03120138  RH  035%=      5-min Rain = 0
KSM2 210425Z 16013KT 31/14 A2993 RMK A01 T03120139  RH  035%=      5-min Rain = 0
KSM2 210426Z 16012KT 31/14 A2993 RMK A01 T03120139  RH  035%=      5-min Rain = 0
KSM2 210427Z 17013KT 31/14 A2993 RMK A01 T03110138  RH  035%=      5-min Rain = 0
KSM2 210428Z 17012KT 31/14 A2993 RMK A01 T03110138  RH  035%=      5-min Rain = 0
KSM2 210429Z 16011KT 31/14 A2993 RMK A01 T03110138  RH  035%=      5-min Rain = 0
KSM2 210430Z 16010KT 31/14 A2993 RMK A01 T03110138  RH  035%=      5-min Rain = 0
KSM2 210431Z 16013G18KT 31/14 A2993 RMK A01 T03100138  RH  035%=      5-min Rain = 0
KSM2 210432Z 17011G16KT 31/14 A2993 RMK A01 T03100138  RH  035%=      5-min Rain = 0
KSM2 210433Z 16011G16KT 31/14 A2993 RMK A01 T03100138  RH  035%=      5-min Rain = 0
KSM2 210434Z 16012KT 31/14 A2993 RMK A01 T03090137  RH  035%=      5-min Rain = 0
KSM2 210435Z 16011KT 31/14 A2993 RMK A01 T03090137  RH  035%=      5-min Rain = 0
KSM2 210436Z 16010KT 31/14 A2993 RMK A01 T03090137  RH  035%=      5-min Rain = 0
KSM2 210437Z 17012KT 31/14 A2993 RMK A01 T03090137  RH  035%=      5-min Rain = 0
KSM2 210438Z 16013KT 31/14 A2993 RMK A01 T03080137  RH  035%=      5-min Rain = 0
KSM2 210439Z 16010G16KT 31/14 A2993 RMK A01 T03080136  RH  035%=      5-min Rain = 0
KSM2 210440Z 16012KT 31/14 A2993 RMK A01 T03080136  RH  035%=      5-min Rain = 0
KSM2 210441Z 16011KT 31/14 A2993 RMK A01 T03080136  RH  035%=      5-min Rain = 0
KSM2 210442Z 17012G17KT 31/14 A2993 RMK A01 T03080136  RH  035%=      5-min Rain = 0
KSM2 210443Z 17013KT 31/14 A2993 RMK A01 T03080135  RH  035%=      5-min Rain = 0
KSM2 210444Z 17014G20KT 31/14 A2993 RMK A01 T03080135  RH  035%=      5-min Rain = 0
KSM2 210445Z 16013G19KT 31/13 A2993 RMK A01 T03080134  RH  035%=      5-min Rain = 0
KSM2 210446Z 17014G19KT 31/13 A2993 RMK A01 T03080134  RH  035%=      5-min Rain = 0
KSM2 210447Z 16015KT 31/13 A2993 RMK A01 T03080133  RH  034%=      5-min Rain = 0
KSM2 210448Z 17014G19KT 31/13 A2993 RMK A01 T03080133  RH  034%=      5-min Rain = 0
KSM2 210449Z 17014KT 31/13 A2993 RMK A01 T03080132  RH  034%=      5-min Rain = 0
KSM2 210450Z 17013KT 31/13 A2993 RMK A01 T03080132  RH  034%=      5-min Rain = 0
KSM2 210451Z 16013G18KT 31/13 A2993 RMK A01 T03080132  RH  034%=      5-min Rain = 0
KSM2 210452Z 17013KT 31/13 A2993 RMK A01 T03080132  RH  034%=      5-min Rain = 0
KSM2 210453Z 17014KT 31/13 A2993 RMK A01 T03070131  RH  034%=      5-min Rain = 0
KSM2 210454Z 17015KT 31/13 A2993 RMK A01 T03070131  RH  034%=      5-min Rain = 0
KSM2 210455Z 16015KT 31/13 A2993 RMK A01 T03070131  RH  034%=      5-min Rain = 0
KSM2 210456Z 17013G18KT 31/13 A2994 RMK A01 T03080131  RH  034%=      5-min Rain = 0
KSM2 210457Z 16011KT 31/13 A2994 RMK A01 T03070131  RH  034%=      5-min Rain = 0
KSM2 210458Z 17013G19KT 31/13 A2994 RMK A01 T03070131  RH  034%=      5-min Rain = 0
KSM2 210459Z 16011G16KT 31/13 A2994 RMK A01 T03060130  RH  034%=      5-min Rain = 0

Page generated in 0.1317 seconds.